Observation data for Vigo Park on 08/14/2019      Previous  Date  Next       Current Mesonet Observations  Soil Data  Daily Summary Page  Observations in Plain Language
KVP1 140500Z 09008KT 25/18 A3017 RMK A01 T02450177  RH  066%=      5-min Rain = 0
KVP1 140501Z 09008KT 25/18 A3017 RMK A01 T02450177  RH  066%=      5-min Rain = 0
KVP1 140502Z 09009KT 25/18 A3017 RMK A01 T02450177  RH  066%=      5-min Rain = 0
KVP1 140503Z 09009KT 25/18 A3017 RMK A01 T02450177  RH  066%=      5-min Rain = 0
KVP1 140504Z 09009KT 25/18 A3017 RMK A01 T02450177  RH  066%=      5-min Rain = 0
KVP1 140505Z 09008KT 25/18 A3017 RMK A01 T02450177  RH  066%=      5-min Rain = 0
KVP1 140506Z 08008KT 25/18 A3017 RMK A01 T02450177  RH  066%=      5-min Rain = 0
KVP1 140507Z 06006KT 24/18 A3017 RMK A01 T02440177  RH  066%=      5-min Rain = 0
KVP1 140508Z 06006KT 24/18 A3018 RMK A01 T02420177  RH  067%=      5-min Rain = 0
KVP1 140509Z 07007KT 24/18 A3018 RMK A01 T02390177  RH  068%=      5-min Rain = 0
KVP1 140510Z 07007KT 24/18 A3018 RMK A01 T02370177  RH  069%=      5-min Rain = 0
KVP1 140524Z 07009KT 24/18 A3018 RMK A01 T02390177  RH  068%=      5-min Rain = 0
KVP1 140525Z 07009KT 24/18 A3019 RMK A01 T02390176  RH  068%=      5-min Rain = 0
KVP1 140526Z 07010KT 24/18 A3019 RMK A01 T02390177  RH  068%=      5-min Rain = 0
KVP1 140527Z 07010KT 24/18 A3019 RMK A01 T02380176  RH  068%=      5-min Rain = 0
KVP1 140528Z 07010KT 24/18 A3019 RMK A01 T02380176  RH  068%=      5-min Rain = 0
KVP1 140529Z 08011KT 24/18 A3019 RMK A01 T02380176  RH  068%=      5-min Rain = 0
KVP1 140530Z 08011KT 24/18 A3019 RMK A01 T02390176  RH  068%=      5-min Rain = 0
KVP1 140531Z 07011KT 24/18 A3019 RMK A01 T02410176  RH  067%=      5-min Rain = 0
KVP1 140532Z 08012KT 24/18 A3019 RMK A01 T02410176  RH  067%=      5-min Rain = 0
KVP1 140533Z 08011KT 24/18 A3019 RMK A01 T02420176  RH  066%=      5-min Rain = 0
KVP1 140534Z 08012KT 24/18 A3019 RMK A01 T02420175  RH  066%=      5-min Rain = 0
KVP1 140535Z 07011KT 24/18 A3019 RMK A01 T02430175  RH  066%=      5-min Rain = 0
KVP1 140536Z 07011KT 24/18 A3019 RMK A01 T02420175  RH  066%=      5-min Rain = 0
KVP1 140537Z 07011KT 24/18 A3019 RMK A01 T02430175  RH  066%=      5-min Rain = 0
KVP1 140538Z 07011KT 24/18 A3019 RMK A01 T02420175  RH  066%=      5-min Rain = 0
KVP1 140539Z 07011KT 24/18 A3019 RMK A01 T02420176  RH  067%=      5-min Rain = 0
KVP1 140540Z 07011KT 24/18 A3019 RMK A01 T02400176  RH  067%=      5-min Rain = 0
KVP1 140541Z 07010KT 24/18 A3019 RMK A01 T02390176  RH  068%=      5-min Rain = 0
KVP1 140542Z 07011KT 24/18 A3019 RMK A01 T02390176  RH  068%=      5-min Rain = 0
KVP1 140543Z 07010KT 24/18 A3019 RMK A01 T02380176  RH  068%=      5-min Rain = 0
KVP1 140544Z 07009KT 24/18 A3019 RMK A01 T02380176  RH  068%=      5-min Rain = 0
KVP1 140545Z 06010KT 24/18 A3019 RMK A01 T02370176  RH  069%=      5-min Rain = 0
KVP1 140546Z 06010KT 24/18 A302 RMK A01 T02360176  RH  069%=      5-min Rain = 0
KVP1 140547Z 06010KT 24/18 A302 RMK A01 T02350176  RH  069%=      5-min Rain = 0
KVP1 140548Z 06011KT 24/18 A302 RMK A01 T02350177  RH  070%=      5-min Rain = 0
KVP1 140549Z 06011KT 24/18 A302 RMK A01 T02350177  RH  070%=      5-min Rain = 0
KVP1 140550Z 06010KT 24/18 A302 RMK A01 T02350177  RH  070%=      5-min Rain = 0
KVP1 140551Z 06010KT 24/18 A302 RMK A01 T02350177  RH  070%=      5-min Rain = 0
KVP1 140552Z 06011KT 24/18 A302 RMK A01 T02350176  RH  070%=      5-min Rain = 0
KVP1 140553Z 06011KT 24/18 A302 RMK A01 T02350176  RH  069%=      5-min Rain = 0
KVP1 140554Z 06010KT 24/18 A302 RMK A01 T02350176  RH  069%=      5-min Rain = 0
KVP1 140555Z 06011KT 24/18 A302 RMK A01 T02350176  RH  069%=      5-min Rain = 0
KVP1 140556Z 06009KT 24/18 A302 RMK A01 T02350175  RH  069%=      5-min Rain = 0
KVP1 140557Z 06009KT 24/18 A302 RMK A01 T02350175  RH  069%=      5-min Rain = 0
KVP1 140558Z 06008KT 23/18 A302 RMK A01 T02340175  RH  069%=      5-min Rain = 0
KVP1 140559Z 06008KT 23/18 A302 RMK A01 T02340175  RH  069%=      5-min Rain = 0
KVP1 140600Z 06007KT 23/17 A302 RMK A01 T02330174  RH  069%=      5-min Rain = 0
KVP1 140601Z 06008KT 23/17 A302 RMK A01 T02320174  RH  070%=      5-min Rain = 0
KVP1 140602Z 06008KT 23/17 A302 RMK A01 T02320174  RH  070%=      5-min Rain = 0
KVP1 140603Z 06008KT 23/17 A302 RMK A01 T02320174  RH  070%=      5-min Rain = 0
KVP1 140604Z 07008KT 23/17 A302 RMK A01 T02320173  RH  069%=      5-min Rain = 0
KVP1 140605Z 07008KT 23/17 A302 RMK A01 T02320173  RH  069%=      5-min Rain = 0
KVP1 140606Z 07008KT 23/17 A302 RMK A01 T02320173  RH  069%=      5-min Rain = 0
KVP1 140607Z 07008KT 23/17 A302 RMK A01 T02320172  RH  069%=      5-min Rain = 0
KVP1 140608Z 07007KT 23/17 A302 RMK A01 T02330172  RH  069%=      5-min Rain = 0
KVP1 140609Z 07007KT 23/17 A302 RMK A01 T02330172  RH  068%=      5-min Rain = 0
KVP1 140610Z 07008KT 23/17 A302 RMK A01 T02330172  RH  068%=      5-min Rain = 0
KVP1 140611Z 07008KT 23/17 A302 RMK A01 T02320171  RH  068%=      5-min Rain = 0
KVP1 140612Z 07008KT 23/17 A302 RMK A01 T02320171  RH  068%=      5-min Rain = 0
KVP1 140613Z 07008KT 23/17 A302 RMK A01 T02320171  RH  069%=      5-min Rain = 0
KVP1 140614Z 07008KT 23/17 A302 RMK A01 T02320171  RH  069%=      5-min Rain = 0
KVP1 140615Z 07008KT 23/17 A302 RMK A01 T02310171  RH  069%=      5-min Rain = 0
KVP1 140616Z 07008KT 23/17 A302 RMK A01 T02300171  RH  069%=      5-min Rain = 0
KVP1 140617Z 07008KT 23/17 A302 RMK A01 T02300171  RH  069%=      5-min Rain = 0
KVP1 140618Z 06009KT 23/17 A302 RMK A01 T02300171  RH  069%=      5-min Rain = 0
KVP1 140619Z 07009KT 23/17 A302 RMK A01 T02300171  RH  069%=      5-min Rain = 0
KVP1 140620Z 07009KT 23/17 A302 RMK A01 T02300171  RH  069%=      5-min Rain = 0
KVP1 140621Z 07009KT 23/17 A302 RMK A01 T02300170  RH  069%=      5-min Rain = 0
KVP1 140622Z 07010KT 23/17 A302 RMK A01 T02300170  RH  069%=      5-min Rain = 0
KVP1 140623Z 07010KT 23/17 A302 RMK A01 T02300171  RH  069%=      5-min Rain = 0
KVP1 140624Z 06009KT 23/17 A302 RMK A01 T02300171  RH  069%=      5-min Rain = 0
KVP1 140625Z 06009KT 23/17 A302 RMK A01 T02310171  RH  069%=      5-min Rain = 0
KVP1 140626Z 06009KT 23/17 A302 RMK A01 T02300170  RH  069%=      5-min Rain = 0
KVP1 140627Z 06008KT 23/17 A302 RMK A01 T02300170  RH  069%=      5-min Rain = 0
KVP1 140628Z 06008KT 23/17 A302 RMK A01 T02290170  RH  069%=      5-min Rain = 0
KVP1 140629Z 06008KT 23/17 A302 RMK A01 T02290170  RH  069%=      5-min Rain = 0
KVP1 140630Z 06008KT 23/17 A302 RMK A01 T02290170  RH  069%=      5-min Rain = 0
KVP1 140631Z 06009KT 23/17 A302 RMK A01 T02290171  RH  070%=      5-min Rain = 0
KVP1 140632Z 06009KT 23/17 A302 RMK A01 T02300171  RH  069%=      5-min Rain = 0
KVP1 140633Z 06010KT 23/17 A302 RMK A01 T02310171  RH  069%=      5-min Rain = 0
KVP1 140634Z 06011KT 23/17 A302 RMK A01 T02320171  RH  069%=      5-min Rain = 0
KVP1 140635Z 06011KT 23/17 A302 RMK A01 T02330172  RH  068%=      5-min Rain = 0
KVP1 140636Z 06011KT 23/17 A302 RMK A01 T02330172  RH  068%=      5-min Rain = 0
KVP1 140637Z 07012KT 23/17 A302 RMK A01 T02340172  RH  068%=      5-min Rain = 0
KVP1 140638Z 07012KT 24/17 A302 RMK A01 T02350173  RH  068%=      5-min Rain = 0
KVP1 140639Z 07012KT 24/17 A302 RMK A01 T02360173  RH  067%=      5-min Rain = 0
KVP1 140640Z 07012KT 24/17 A302 RMK A01 T02370173  RH  067%=      5-min Rain = 0
KVP1 140641Z 07012KT 24/17 A302 RMK A01 T02380173  RH  067%=      5-min Rain = 0
KVP1 140642Z 07011KT 24/17 A302 RMK A01 T02390173  RH  067%=      5-min Rain = 0
KVP1 140643Z 07011KT 24/17 A302 RMK A01 T02390173  RH  066%=      5-min Rain = 0
KVP1 140644Z 08009KT 24/17 A302 RMK A01 T02390172  RH  066%=      5-min Rain = 0
KVP1 140645Z 08010KT 24/17 A302 RMK A01 T02390172  RH  066%=      5-min Rain = 0
KVP1 140646Z 08009KT 24/17 A302 RMK A01 T02380172  RH  066%=      5-min Rain = 0
KVP1 140647Z 08009KT 24/17 A302 RMK A01 T02380172  RH  066%=      5-min Rain = 0
KVP1 140648Z 08008KT 24/17 A302 RMK A01 T02380172  RH  066%=      5-min Rain = 0
KVP1 140649Z 08008KT 24/17 A302 RMK A01 T02380172  RH  066%=      5-min Rain = 0
KVP1 140650Z 08008KT 24/17 A302 RMK A01 T02380172  RH  067%=      5-min Rain = 0
KVP1 140651Z 08007KT 24/17 A302 RMK A01 T02380172  RH  067%=      5-min Rain = 0
KVP1 140652Z 08007KT 24/17 A3019 RMK A01 T02370172  RH  067%=      5-min Rain = 0
KVP1 140653Z 09007KT 24/17 A3019 RMK A01 T02370171  RH  067%=      5-min Rain = 0
KVP1 140654Z 09008KT 24/17 A3019 RMK A01 T02360171  RH  067%=      5-min Rain = 0
KVP1 140655Z 10007KT 24/17 A3019 RMK A01 T02360170  RH  067%=      5-min Rain = 0
KVP1 140656Z 10007KT 24/17 A3019 RMK A01 T02350170  RH  067%=      5-min Rain = 0
KVP1 140657Z 10007KT 23/17 A3019 RMK A01 T02340170  RH  067%=      5-min Rain = 0
KVP1 140658Z 10007KT 23/17 A3019 RMK A01 T02330170  RH  067%=      5-min Rain = 0
KVP1 140659Z 10008KT 23/17 A3019 RMK A01 T02330170  RH  068%=      5-min Rain = 0
KVP1 140700Z 10009KT 23/17 A3019 RMK A01 T02320170  RH  068%=      5-min Rain = 0
KVP1 140701Z 10008KT 23/17 A302 RMK A01 T02320170  RH  068%=      5-min Rain = 0
KVP1 140702Z 10008KT 23/17 A302 RMK A01 T02320170  RH  068%=      5-min Rain = 0
KVP1 140703Z 10007KT 23/17 A302 RMK A01 T02320170  RH  068%=      5-min Rain = 0
KVP1 140704Z 10007KT 23/17 A302 RMK A01 T02320170  RH  068%=      5-min Rain = 0
KVP1 140705Z 10007KT 23/17 A302 RMK A01 T02310170  RH  068%=      5-min Rain = 0
KVP1 140706Z 10007KT 23/17 A302 RMK A01 T02310170  RH  068%=      5-min Rain = 0
KVP1 140707Z 10007KT 23/17 A302 RMK A01 T02300169  RH  069%=      5-min Rain = 0
KVP1 140708Z 10007KT 23/17 A302 RMK A01 T02300170  RH  069%=      5-min Rain = 0
KVP1 140709Z 10008KT 23/17 A3019 RMK A01 T02290170  RH  069%=      5-min Rain = 0
KVP1 140710Z 10008KT 23/17 A3019 RMK A01 T02290170  RH  069%=      5-min Rain = 0
KVP1 140711Z 10008KT 23/17 A3019 RMK A01 T02300170  RH  069%=      5-min Rain = 0
KVP1 140712Z 11008KT 23/17 A3019 RMK A01 T02300170  RH  069%=      5-min Rain = 0
KVP1 140713Z 10009KT 23/17 A3019 RMK A01 T02300170  RH  069%=      5-min Rain = 0
KVP1 140714Z 11009KT 23/17 A3018 RMK A01 T02290171  RH  069%=      5-min Rain = 0
KVP1 140715Z 10009KT 23/17 A3018 RMK A01 T02290170  RH  069%=      5-min Rain = 0
KVP1 140716Z 11009KT 23/17 A3018 RMK A01 T02280171  RH  070%=      5-min Rain = 0
KVP1 140717Z 10010KT 23/17 A3018 RMK A01 T02280171  RH  070%=      5-min Rain = 0
KVP1 140718Z 10009KT 23/17 A3018 RMK A01 T02290171  RH  070%=      5-min Rain = 0
KVP1 140719Z 09009KT 23/17 A3018 RMK A01 T02290171  RH  070%=      5-min Rain = 0
KVP1 140720Z 07009KT 23/17 A3019 RMK A01 T02290171  RH  070%=      5-min Rain = 0
KVP1 140721Z 07010KT 23/17 A3019 RMK A01 T02290171  RH  070%=      5-min Rain = 0
KVP1 140722Z 06011KT 23/17 A3019 RMK A01 T02290171  RH  070%=      5-min Rain = 0
KVP1 140723Z 05014G19KT 23/17 A3019 RMK A01 T02300173  RH  070%=      5-min Rain = 0
KVP1 140724Z 05018KT 23/18 A3019 RMK A01 T02300177  RH  072%=      5-min Rain = 0
KVP1 140725Z 05016KT 23/18 A3019 RMK A01 T02300180  RH  073%=      5-min Rain = 0
KVP1 140726Z 05014KT 23/18 A302 RMK A01 T02290180  RH  074%=      5-min Rain = 0
KVP1 140727Z 05014KT 23/18 A302 RMK A01 T02290181  RH  074%=      5-min Rain = 0
KVP1 140728Z 04013KT 23/18 A302 RMK A01 T02290180  RH  074%=      5-min Rain = 0
KVP1 140729Z 04013KT 23/18 A302 RMK A01 T02290180  RH  074%=      5-min Rain = 0
KVP1 140730Z 05019KT 23/18 A302 RMK A01 T02290179  RH  074%=      5-min Rain = 0
KVP1 140731Z 05018KT 23/18 A302 RMK A01 T02280179  RH  074%=      5-min Rain = 0
KVP1 140732Z 06015KT 23/18 A302 RMK A01 T02270178  RH  074%=      5-min Rain = 0
KVP1 140733Z 06017G22KT 23/18 A302 RMK A01 T02270177  RH  073%=      5-min Rain = 0
KVP1 140734Z 06019KT 23/17 A302 RMK A01 T02270172  RH  071%=      5-min Rain = 0
KVP1 140735Z 06019KT 23/17 A302 RMK A01 T02270170  RH  070%=      5-min Rain = 0
KVP1 140736Z 06017KT 23/17 A302 RMK A01 T02260168  RH  070%=      5-min Rain = 0
KVP1 140737Z 06018KT 23/17 A302 RMK A01 T02250168  RH  070%=      5-min Rain = 0
KVP1 140738Z 06013G18KT 23/17 A302 RMK A01 T02250167  RH  070%=      5-min Rain = 0
KVP1 140739Z 06015KT 22/17 A302 RMK A01 T02240166  RH  070%=      5-min Rain = 0
KVP1 140740Z 06015KT 22/17 A302 RMK A01 T02230165  RH  070%=      5-min Rain = 0
KVP1 140741Z 06016KT 22/17 A302 RMK A01 T02230165  RH  070%=      5-min Rain = 0
KVP1 140742Z 05015G20KT 22/17 A302 RMK A01 T02220165  RH  070%=      5-min Rain = 0
KVP1 140743Z 05015KT 22/16 A302 RMK A01 T02210164  RH  070%=      5-min Rain = 0
KVP1 140744Z 05015G21KT 22/16 A302 RMK A01 T02200163  RH  070%=      5-min Rain = 0
KVP1 140745Z 05019KT 22/16 A302 RMK A01 T02190158  RH  068%=      5-min Rain = 0
KVP1 140746Z 05018KT 22/16 A302 RMK A01 T02180157  RH  068%=      5-min Rain = 0
KVP1 140747Z 05015G20KT 22/16 A302 RMK A01 T02170156  RH  068%=      5-min Rain = 0
KVP1 140748Z 05015KT 22/16 A3021 RMK A01 T02170157  RH  069%=      5-min Rain = 0
KVP1 140749Z 05013KT 22/16 A3021 RMK A01 T02160157  RH  069%=      5-min Rain = 0
KVP1 140750Z 04014KT 22/16 A3021 RMK A01 T02150157  RH  070%=      5-min Rain = 0
KVP1 140751Z 05014KT 22/16 A3021 RMK A01 T02150158  RH  070%=      5-min Rain = 0
KVP1 140752Z 05014KT 22/16 A3021 RMK A01 T02150159  RH  070%=      5-min Rain = 0
KVP1 140753Z 05011KT 22/16 A3021 RMK A01 T02150159  RH  071%=      5-min Rain = 0
KVP1 140754Z 05013KT 22/16 A302 RMK A01 T02150159  RH  070%=      5-min Rain = 0
KVP1 140755Z 05010KT 21/16 A302 RMK A01 T02140158  RH  070%=      5-min Rain = 0
KVP1 140756Z 05010KT 21/16 A302 RMK A01 T02140159  RH  070%=      5-min Rain = 0
KVP1 140757Z 06009KT 21/16 A302 RMK A01 T02130158  RH  070%=      5-min Rain = 0
KVP1 140758Z 06012KT 21/16 A302 RMK A01 T02130157  RH  070%=      5-min Rain = 0
KVP1 140759Z 05015KT 21/16 A302 RMK A01 T02120155  RH  070%=      5-min Rain = 0
KVP1 140800Z 05012KT 21/15 A302 RMK A01 T02120154  RH  069%=      5-min Rain = 0
KVP1 140801Z 05013KT 21/15 A302 RMK A01 T02120154  RH  069%=      5-min Rain = 0
KVP1 140802Z 05013KT 21/15 A302 RMK A01 T02120154  RH  070%=      5-min Rain = 0
KVP1 140803Z 04012KT 21/16 A302 RMK A01 T02110155  RH  070%=      5-min Rain = 0
KVP1 140804Z 04012KT 21/16 A302 RMK A01 T02110155  RH  070%=      5-min Rain = 0
KVP1 140805Z 04011KT 21/16 A302 RMK A01 T02110155  RH  070%=      5-min Rain = 0
KVP1 140806Z 05010KT 21/16 A302 RMK A01 T02100155  RH  071%=      5-min Rain = 0
KVP1 140807Z 04012KT 21/15 A302 RMK A01 T02090153  RH  071%=      5-min Rain = 0
KVP1 140808Z 05013KT 21/15 A302 RMK A01 T02080152  RH  070%=      5-min Rain = 0
KVP1 140809Z 05011KT 21/15 A302 RMK A01 T02080150  RH  069%=      5-min Rain = 0
KVP1 140810Z 05012KT 21/15 A302 RMK A01 T02070148  RH  069%=      5-min Rain = 0
KVP1 140811Z 05012KT 21/15 A302 RMK A01 T02070146  RH  068%=      5-min Rain = 0
KVP1 140812Z 05011G17KT 21/15 A302 RMK A01 T02070145  RH  068%=      5-min Rain = 0
KVP1 140813Z 06013KT 21/14 A302 RMK A01 T02060143  RH  067%=      5-min Rain = 0
KVP1 140814Z 06013KT 21/14 A302 RMK A01 T02060142  RH  067%=      5-min Rain = 0
KVP1 140815Z 06014KT 21/14 A302 RMK A01 T02050141  RH  066%=      5-min Rain = 0
KVP1 140816Z 05015KT 21/14 A302 RMK A01 T02060140  RH  066%=      5-min Rain = 0
KVP1 140817Z 05012KT 21/14 A302 RMK A01 T02050140  RH  066%=      5-min Rain = 0
KVP1 140818Z 06013KT 21/14 A302 RMK A01 T02060140  RH  066%=      5-min Rain = 0
KVP1 140819Z 06012KT 21/14 A302 RMK A01 T02050140  RH  066%=      5-min Rain = 0
KVP1 140820Z 05011KT 21/14 A302 RMK A01 T02050139  RH  066%=      5-min Rain = 0
KVP1 140821Z 06011KT 20/14 A302 RMK A01 T02040140  RH  066%=      5-min Rain = 0
KVP1 140822Z 06011KT 20/14 A302 RMK A01 T02040140  RH  066%=      5-min Rain = 0
KVP1 140823Z 06011KT 20/14 A302 RMK A01 T02040140  RH  067%=      5-min Rain = 0
KVP1 140824Z 06010KT 20/14 A302 RMK A01 T02030140  RH  067%=      5-min Rain = 0
KVP1 140825Z 05010KT 20/14 A302 RMK A01 T02030140  RH  067%=      5-min Rain = 0
KVP1 140826Z 05010KT 20/14 A302 RMK A01 T02030140  RH  067%=      5-min Rain = 0
KVP1 140827Z 05010KT 20/14 A302 RMK A01 T02030140  RH  067%=      5-min Rain = 0
KVP1 140828Z 05010KT 20/14 A302 RMK A01 T02020140  RH  067%=      5-min Rain = 0
KVP1 140829Z 05010KT 20/14 A302 RMK A01 T02020140  RH  068%=      5-min Rain = 0
KVP1 140830Z 05009KT 20/14 A302 RMK A01 T02020141  RH  068%=      5-min Rain = 0
KVP1 140831Z 05010KT 20/14 A302 RMK A01 T02020141  RH  068%=      5-min Rain = 0
KVP1 140832Z 05010KT 20/14 A302 RMK A01 T02030141  RH  067%=      5-min Rain = 0
KVP1 140833Z 05011KT 20/14 A302 RMK A01 T02040141  RH  067%=      5-min Rain = 0
KVP1 140834Z 05011KT 20/14 A302 RMK A01 T02040140  RH  067%=      5-min Rain = 0
KVP1 140835Z 05010KT 21/14 A3019 RMK A01 T02050140  RH  066%=      5-min Rain = 0
KVP1 140836Z 05010KT 21/14 A3019 RMK A01 T02050139  RH  066%=      5-min Rain = 0
KVP1 140837Z 05012KT 21/14 A3019 RMK A01 T02060138  RH  065%=      5-min Rain = 0
KVP1 140838Z 05012KT 21/14 A3019 RMK A01 T02060138  RH  065%=      5-min Rain = 0
KVP1 140839Z 05011KT 21/14 A302 RMK A01 T02060138  RH  065%=      5-min Rain = 0
KVP1 140840Z 05010KT 21/14 A302 RMK A01 T02060138  RH  065%=      5-min Rain = 0
KVP1 140841Z 05011KT 21/14 A302 RMK A01 T02060138  RH  065%=      5-min Rain = 0
KVP1 140842Z 05010KT 21/14 A302 RMK A01 T02060139  RH  065%=      5-min Rain = 0
KVP1 140843Z 05010KT 21/14 A302 RMK A01 T02060138  RH  065%=      5-min Rain = 0
KVP1 140844Z 05009KT 21/14 A302 RMK A01 T02060138  RH  065%=      5-min Rain = 0
KVP1 140845Z 05009KT 21/14 A302 RMK A01 T02050139  RH  065%=      5-min Rain = 0
KVP1 140846Z 05009KT 21/14 A302 RMK A01 T02050138  RH  066%=      5-min Rain = 0
KVP1 140847Z 04009KT 21/14 A302 RMK A01 T02050139  RH  066%=      5-min Rain = 0
KVP1 140848Z 04011KT 21/14 A302 RMK A01 T02050139  RH  066%=      5-min Rain = 0
KVP1 140849Z 05010KT 21/14 A302 RMK A01 T02050138  RH  066%=      5-min Rain = 0
KVP1 140850Z 05010KT 20/14 A302 RMK A01 T02040138  RH  065%=      5-min Rain = 0
KVP1 140851Z 05010KT 20/14 A302 RMK A01 T02040137  RH  065%=      5-min Rain = 0
KVP1 140852Z 05010KT 20/14 A302 RMK A01 T02040137  RH  065%=      5-min Rain = 0
KVP1 140853Z 04010KT 20/14 A302 RMK A01 T02040136  RH  065%=      5-min Rain = 0
KVP1 140854Z 05010KT 20/14 A302 RMK A01 T02040136  RH  065%=      5-min Rain = 0
KVP1 140855Z 05010KT 20/14 A302 RMK A01 T02040135  RH  065%=      5-min Rain = 0
KVP1 140856Z 04010KT 20/14 A302 RMK A01 T02040135  RH  065%=      5-min Rain = 0
KVP1 140857Z 04010KT 20/14 A302 RMK A01 T02040135  RH  065%=      5-min Rain = 0
KVP1 140858Z 04010KT 20/13 A302 RMK A01 T02030134  RH  064%=      5-min Rain = 0
KVP1 140859Z 04010KT 20/13 A302 RMK A01 T02040134  RH  064%=      5-min Rain = 0
KVP1 140900Z 04011KT 20/13 A302 RMK A01 T02040134  RH  064%=      5-min Rain = 0
KVP1 140901Z 04011KT 20/13 A302 RMK A01 T02030134  RH  064%=      5-min Rain = 0
KVP1 140902Z 04010KT 20/13 A302 RMK A01 T02030134  RH  064%=      5-min Rain = 0
KVP1 140903Z 04010KT 20/13 A302 RMK A01 T02030134  RH  064%=      5-min Rain = 0
KVP1 140904Z 04009KT 20/13 A302 RMK A01 T02020133  RH  065%=      5-min Rain = 0
KVP1 140905Z 04011KT 20/13 A302 RMK A01 T02010133  RH  065%=      5-min Rain = 0
KVP1 140906Z 04010KT 20/13 A302 RMK A01 T02010132  RH  065%=      5-min Rain = 0
KVP1 140907Z 04011KT 20/13 A302 RMK A01 T02010132  RH  065%=      5-min Rain = 0
KVP1 140908Z 03009KT 20/13 A302 RMK A01 T02010133  RH  065%=      5-min Rain = 0
KVP1 140909Z 04009KT 20/13 A302 RMK A01 T02000132  RH  065%=      5-min Rain = 0
KVP1 140910Z 04009KT 20/13 A302 RMK A01 T01990132  RH  065%=      5-min Rain = 0
KVP1 140911Z 03009KT 20/13 A302 RMK A01 T01990132  RH  065%=      5-min Rain = 0
KVP1 140912Z 04009KT 20/13 A302 RMK A01 T01980132  RH  065%=      5-min Rain = 0
KVP1 140913Z 04009KT 20/13 A302 RMK A01 T01980132  RH  065%=      5-min Rain = 0
KVP1 140914Z 04008KT 20/13 A302 RMK A01 T01980131  RH  065%=      5-min Rain = 0
KVP1 140915Z 04009KT 20/13 A302 RMK A01 T01980131  RH  065%=      5-min Rain = 0
KVP1 140916Z 04009KT 20/13 A302 RMK A01 T01980132  RH  065%=      5-min Rain = 0
KVP1 140917Z 04008KT 20/13 A302 RMK A01 T01980132  RH  065%=      5-min Rain = 0
KVP1 140918Z 04008KT 20/13 A302 RMK A01 T01980131  RH  066%=      5-min Rain = 0
KVP1 140919Z 03009KT 20/13 A302 RMK A01 T01970131  RH  066%=      5-min Rain = 0
KVP1 140920Z 04008KT 20/13 A302 RMK A01 T01960131  RH  066%=      5-min Rain = 0
KVP1 140921Z 04009KT 20/13 A302 RMK A01 T01960131  RH  066%=      5-min Rain = 0
KVP1 140922Z 04009KT 20/13 A3021 RMK A01 T01960131  RH  066%=      5-min Rain = 0
KVP1 140923Z 05008KT 20/13 A3021 RMK A01 T01960130  RH  066%=      5-min Rain = 0
KVP1 140924Z 05007KT 20/13 A3021 RMK A01 T01960130  RH  066%=      5-min Rain = 0
KVP1 140925Z 05008KT 20/13 A3021 RMK A01 T01950130  RH  066%=      5-min Rain = 0
KVP1 140926Z 05007KT 20/13 A3021 RMK A01 T01950131  RH  066%=      5-min Rain = 0
KVP1 140927Z 05006KT 20/13 A3021 RMK A01 T01950130  RH  066%=      5-min Rain = 0
KVP1 140928Z 05007KT 19/13 A3021 RMK A01 T01940130  RH  066%=      5-min Rain = 0
KVP1 140929Z 05007KT 19/13 A3021 RMK A01 T01930130  RH  067%=      5-min Rain = 0
KVP1 140930Z 04007KT 19/13 A3021 RMK A01 T01920130  RH  067%=      5-min Rain = 0
KVP1 140931Z 04007KT 19/13 A3021 RMK A01 T01920130  RH  067%=      5-min Rain = 0
KVP1 140932Z 04007KT 19/13 A3021 RMK A01 T01920130  RH  067%=      5-min Rain = 0
KVP1 140933Z 03008KT 19/13 A3022 RMK A01 T01920130  RH  068%=      5-min Rain = 0
KVP1 140934Z 03007KT 19/13 A3022 RMK A01 T01910130  RH  068%=      5-min Rain = 0
KVP1 140935Z 03007KT 19/13 A3022 RMK A01 T01910130  RH  068%=      5-min Rain = 0
KVP1 140936Z 02007KT 19/13 A3022 RMK A01 T01910130  RH  068%=      5-min Rain = 0
KVP1 140937Z 03007KT 19/13 A3022 RMK A01 T01910130  RH  068%=      5-min Rain = 0
KVP1 140938Z 02009KT 19/13 A3022 RMK A01 T01910130  RH  068%=      5-min Rain = 0
KVP1 140939Z 02008KT 19/13 A3022 RMK A01 T01910130  RH  068%=      5-min Rain = 0
KVP1 140940Z 02009KT 19/13 A3023 RMK A01 T01920130  RH  067%=      5-min Rain = 0
KVP1 140941Z 01008KT 19/13 A3023 RMK A01 T01930130  RH  067%=      5-min Rain = 0
KVP1 140942Z 01008KT 19/13 A3023 RMK A01 T01930130  RH  067%=      5-min Rain = 0
KVP1 140943Z 01007KT 19/13 A3023 RMK A01 T01930130  RH  067%=      5-min Rain = 0
KVP1 140944Z 02007KT 19/13 A3023 RMK A01 T01930130  RH  067%=      5-min Rain = 0
KVP1 140945Z 02008KT 19/13 A3023 RMK A01 T01930130  RH  067%=      5-min Rain = 0
KVP1 140946Z 01007KT 19/13 A3023 RMK A01 T01930130  RH  067%=      5-min Rain = 0
KVP1 140947Z 02009KT 19/13 A3023 RMK A01 T01930129  RH  067%=      5-min Rain = 0
KVP1 140948Z 02008KT 19/13 A3023 RMK A01 T01930129  RH  066%=      5-min Rain = 0
KVP1 140949Z 02008KT 19/13 A3023 RMK A01 T01940130  RH  066%=      5-min Rain = 0
KVP1 140950Z 02008KT 20/13 A3023 RMK A01 T01950130  RH  066%=      5-min Rain = 0
KVP1 140951Z 02007KT 20/13 A3023 RMK A01 T01950130  RH  066%=      5-min Rain = 0
KVP1 140952Z 02008KT 20/13 A3023 RMK A01 T01960130  RH  066%=      5-min Rain = 0
KVP1 140953Z 02007KT 20/13 A3023 RMK A01 T01960130  RH  065%=      5-min Rain = 0
KVP1 140954Z 03007KT 20/13 A3023 RMK A01 T01970130  RH  065%=      5-min Rain = 0
KVP1 140955Z 03007KT 20/13 A3023 RMK A01 T01970130  RH  065%=      5-min Rain = 0
KVP1 140956Z 03007KT 20/13 A3023 RMK A01 T01970130  RH  065%=      5-min Rain = 0
KVP1 140957Z 03008KT 20/13 A3023 RMK A01 T01970129  RH  065%=      5-min Rain = 0
KVP1 140958Z 03008KT 20/13 A3023 RMK A01 T01970129  RH  065%=      5-min Rain = 0
KVP1 140959Z 04007KT 20/13 A3023 RMK A01 T01970130  RH  065%=      5-min Rain = 0
KVP1 141000Z 04008KT 20/13 A3023 RMK A01 T01980130  RH  065%=      5-min Rain = 0
KVP1 141001Z 04006KT 20/13 A3023 RMK A01 T01980130  RH  065%=      5-min Rain = 0
KVP1 141002Z 04008KT 20/13 A3023 RMK A01 T01980130  RH  065%=      5-min Rain = 0
KVP1 141003Z 04008KT 20/13 A3023 RMK A01 T01980130  RH  065%=      5-min Rain = 0
KVP1 141004Z 04007KT 20/13 A3023 RMK A01 T01990130  RH  064%=      5-min Rain = 0
KVP1 141005Z 05007KT 20/13 A3023 RMK A01 T01990130  RH  064%=      5-min Rain = 0
KVP1 141006Z 04008KT 20/13 A3023 RMK A01 T01990130  RH  064%=      5-min Rain = 0
KVP1 141007Z 04007KT 20/13 A3023 RMK A01 T01990130  RH  064%=      5-min Rain = 0
KVP1 141008Z 04009KT 20/13 A3023 RMK A01 T01990130  RH  065%=      5-min Rain = 0
KVP1 141009Z 04008KT 20/13 A3023 RMK A01 T01990130  RH  065%=      5-min Rain = 0
KVP1 141010Z 04008KT 20/13 A3022 RMK A01 T01980130  RH  065%=      5-min Rain = 0
KVP1 141011Z 04008KT 20/13 A3023 RMK A01 T01980130  RH  065%=      5-min Rain = 0
KVP1 141012Z 04007KT 20/13 A3023 RMK A01 T01980130  RH  065%=      5-min Rain = 0
KVP1 141013Z 04008KT 20/13 A3023 RMK A01 T01970130  RH  065%=      5-min Rain = 0
KVP1 141014Z 03008KT 20/13 A3023 RMK A01 T01970130  RH  065%=      5-min Rain = 0
KVP1 141015Z 03008KT 20/13 A3023 RMK A01 T01970130  RH  065%=      5-min Rain = 0
KVP1 141016Z 04008KT 20/13 A3023 RMK A01 T01970130  RH  065%=      5-min Rain = 0
KVP1 141017Z 03009KT 20/13 A3023 RMK A01 T01970130  RH  065%=      5-min Rain = 0
KVP1 141018Z 04009KT 20/13 A3023 RMK A01 T01970130  RH  066%=      5-min Rain = 0
KVP1 141019Z 03009KT 20/13 A3023 RMK A01 T01970131  RH  066%=      5-min Rain = 0
KVP1 141020Z 04009KT 20/13 A3023 RMK A01 T01970131  RH  066%=      5-min Rain = 0
KVP1 141021Z 03008KT 20/13 A3023 RMK A01 T01970131  RH  066%=      5-min Rain = 0
KVP1 141022Z 04009KT 20/13 A3023 RMK A01 T01960131  RH  066%=      5-min Rain = 0
KVP1 141023Z 04010KT 20/13 A3023 RMK A01 T01960131  RH  066%=      5-min Rain = 0
KVP1 141024Z 04008KT 20/13 A3023 RMK A01 T01960131  RH  066%=      5-min Rain = 0
KVP1 141025Z 03009KT 20/13 A3023 RMK A01 T01960131  RH  066%=      5-min Rain = 0
KVP1 141026Z 03008KT 20/13 A3023 RMK A01 T01950131  RH  067%=      5-min Rain = 0
KVP1 141027Z 04007KT 19/13 A3023 RMK A01 T01940131  RH  067%=      5-min Rain = 0
KVP1 141028Z 03007KT 19/13 A3023 RMK A01 T01940131  RH  067%=      5-min Rain = 0
KVP1 141029Z 03007KT 19/13 A3023 RMK A01 T01930131  RH  067%=      5-min Rain = 0
KVP1 141030Z 03007KT 19/13 A3023 RMK A01 T01930131  RH  068%=      5-min Rain = 0
KVP1 141031Z 03007KT 19/13 A3023 RMK A01 T01920131  RH  068%=      5-min Rain = 0
KVP1 141032Z 03007KT 19/13 A3023 RMK A01 T01920131  RH  068%=      5-min Rain = 0
KVP1 141033Z 02007KT 19/13 A3023 RMK A01 T01910131  RH  068%=      5-min Rain = 0
KVP1 141034Z 02006KT 19/13 A3023 RMK A01 T01910131  RH  068%=      5-min Rain = 0
KVP1 141035Z 02008KT 19/13 A3024 RMK A01 T01910131  RH  068%=      5-min Rain = 0
KVP1 141036Z 02007KT 19/13 A3024 RMK A01 T01910131  RH  068%=      5-min Rain = 0
KVP1 141037Z 02007KT 19/13 A3024 RMK A01 T01910131  RH  068%=      5-min Rain = 0
KVP1 141038Z 01007KT 19/13 A3024 RMK A01 T01910131  RH  068%=      5-min Rain = 0
KVP1 141039Z 02007KT 19/13 A3024 RMK A01 T01910132  RH  069%=      5-min Rain = 0
KVP1 141040Z 01006KT 19/13 A3024 RMK A01 T01900132  RH  069%=      5-min Rain = 0
KVP1 141041Z 02005KT 19/13 A3024 RMK A01 T01900132  RH  069%=      5-min Rain = 0
KVP1 141042Z 01005KT 19/13 A3024 RMK A01 T01900132  RH  069%=      5-min Rain = 0
KVP1 141043Z 02006KT 19/13 A3024 RMK A01 T01890132  RH  069%=      5-min Rain = 0
KVP1 141044Z 02006KT 19/13 A3024 RMK A01 T01890132  RH  069%=      5-min Rain = 0
KVP1 141045Z 02006KT 19/13 A3024 RMK A01 T01890132  RH  069%=      5-min Rain = 0
KVP1 141046Z 02006KT 19/13 A3024 RMK A01 T01890132  RH  069%=      5-min Rain = 0
KVP1 141047Z 03005KT 19/13 A3024 RMK A01 T01890132  RH  070%=      5-min Rain = 0
KVP1 141048Z 03005KT 19/13 A3024 RMK A01 T01880132  RH  070%=      5-min Rain = 0
KVP1 141049Z 04006KT 19/13 A3024 RMK A01 T01870132  RH  070%=      5-min Rain = 0
KVP1 141050Z 04005KT 19/13 A3024 RMK A01 T01870132  RH  070%=      5-min Rain = 0
KVP1 141051Z 04006KT 19/13 A3024 RMK A01 T01870133  RH  071%=      5-min Rain = 0
KVP1 141052Z 04006KT 19/13 A3024 RMK A01 T01870132  RH  070%=      5-min Rain = 0
KVP1 141053Z 04005KT 19/13 A3024 RMK A01 T01860132  RH  071%=      5-min Rain = 0
KVP1 141054Z 04006KT 19/13 A3024 RMK A01 T01860132  RH  071%=      5-min Rain = 0
KVP1 141055Z 04006KT 19/13 A3024 RMK A01 T01850132  RH  071%=      5-min Rain = 0
KVP1 141056Z 04006KT 19/13 A3024 RMK A01 T01850132  RH  071%=      5-min Rain = 0
KVP1 141057Z 04006KT 19/13 A3024 RMK A01 T01850133  RH  071%=      5-min Rain = 0
KVP1 141058Z 04006KT 19/13 A3023 RMK A01 T01850133  RH  071%=      5-min Rain = 0
KVP1 141059Z 05006KT 19/13 A3023 RMK A01 T01850133  RH  072%=      5-min Rain = 0
KVP1 141100Z 04005KT 18/13 A3023 RMK A01 T01840133  RH  072%=      5-min Rain = 0
KVP1 141101Z 04005KT 18/13 A3023 RMK A01 T01840133  RH  072%=      5-min Rain = 0
KVP1 141102Z 04006KT 18/13 A3023 RMK A01 T01840133  RH  072%=      5-min Rain = 0
KVP1 141103Z 04006KT 18/13 A3023 RMK A01 T01840133  RH  072%=      5-min Rain = 0
KVP1 141104Z 05005KT 18/13 A3023 RMK A01 T01840133  RH  072%=      5-min Rain = 0
KVP1 141105Z 05006KT 18/13 A3023 RMK A01 T01840133  RH  072%=      5-min Rain = 0
KVP1 141106Z 06005KT 18/13 A3023 RMK A01 T01840133  RH  072%=      5-min Rain = 0
KVP1 141107Z 06006KT 18/13 A3023 RMK A01 T01840133  RH  072%=      5-min Rain = 0
KVP1 141108Z 05006KT 18/13 A3023 RMK A01 T01840133  RH  072%=      5-min Rain = 0
KVP1 141109Z 05006KT 18/13 A3023 RMK A01 T01830133  RH  073%=      5-min Rain = 0
KVP1 141110Z 06006KT 18/13 A3023 RMK A01 T01820133  RH  073%=      5-min Rain = 0
KVP1 141111Z 07005KT 18/13 A3024 RMK A01 T01830133  RH  073%=      5-min Rain = 0
KVP1 141112Z 08005KT 18/13 A3024 RMK A01 T01820132  RH  073%=      5-min Rain = 0
KVP1 141113Z 08005KT 18/13 A3024 RMK A01 T01810132  RH  073%=      5-min Rain = 0
KVP1 141114Z 07006KT 18/13 A3024 RMK A01 T01810131  RH  073%=      5-min Rain = 0
KVP1 141115Z 07005KT 18/13 A3024 RMK A01 T01810131  RH  073%=      5-min Rain = 0
KVP1 141116Z 06006KT 18/13 A3024 RMK A01 T01800131  RH  073%=      5-min Rain = 0
KVP1 141117Z 05006KT 18/13 A3024 RMK A01 T01800131  RH  073%=      5-min Rain = 0
KVP1 141118Z 04006KT 18/13 A3024 RMK A01 T01790132  RH  074%=      5-min Rain = 0
KVP1 141119Z 04006KT 18/13 A3024 RMK A01 T01790132  RH  074%=      5-min Rain = 0
KVP1 141120Z 03005KT 18/13 A3024 RMK A01 T01790132  RH  074%=      5-min Rain = 0
KVP1 141121Z 03005KT 18/13 A3024 RMK A01 T01790133  RH  074%=      5-min Rain = 0
KVP1 141122Z 04005KT 18/13 A3024 RMK A01 T01790133  RH  074%=      5-min Rain = 0
KVP1 141123Z 05005KT 18/13 A3024 RMK A01 T01790133  RH  074%=      5-min Rain = 0
KVP1 141124Z 05005KT 18/13 A3024 RMK A01 T01790133  RH  074%=      5-min Rain = 0
KVP1 141125Z 05005KT 18/13 A3024 RMK A01 T01780132  RH  074%=      5-min Rain = 0
KVP1 141126Z 06005KT 18/13 A3024 RMK A01 T01780132  RH  074%=      5-min Rain = 0
KVP1 141127Z 05005KT 18/13 A3024 RMK A01 T01780132  RH  074%=      5-min Rain = 0
KVP1 141128Z 04005KT 18/13 A3024 RMK A01 T01780132  RH  074%=      5-min Rain = 0
KVP1 141129Z 03005KT 18/13 A3024 RMK A01 T01780132  RH  075%=      5-min Rain = 0
KVP1 141130Z 02006KT 18/13 A3025 RMK A01 T01780132  RH  075%=      5-min Rain = 0
KVP1 141131Z 01007KT 18/13 A3025 RMK A01 T01780133  RH  075%=      5-min Rain = 0
KVP1 141132Z 00008KT 18/13 A3025 RMK A01 T01780132  RH  075%=      5-min Rain = 0
KVP1 141133Z 01008KT 18/13 A3025 RMK A01 T01780132  RH  075%=      5-min Rain = 0
KVP1 141134Z 01007KT 18/13 A3025 RMK A01 T01780132  RH  074%=      5-min Rain = 0
KVP1 141135Z 01006KT 18/13 A3025 RMK A01 T01790133  RH  074%=      5-min Rain = 0
KVP1 141136Z 01006KT 18/13 A3025 RMK A01 T01790133  RH  074%=      5-min Rain = 0
KVP1 141137Z 02006KT 18/13 A3025 RMK A01 T01780133  RH  075%=      5-min Rain = 0
KVP1 141138Z 01005KT 18/13 A3025 RMK A01 T01780133  RH  075%=      5-min Rain = 0
KVP1 141139Z 00007KT 18/13 A3026 RMK A01 T01780133  RH  075%=      5-min Rain = 0
KVP1 141140Z 00007KT 18/13 A3026 RMK A01 T01780133  RH  075%=      5-min Rain = 0
KVP1 141141Z 00006KT 18/13 A3026 RMK A01 T01780134  RH  075%=      5-min Rain = 0
KVP1 141142Z 02006KT 18/13 A3026 RMK A01 T01770134  RH  075%=      5-min Rain = 0
KVP1 141143Z 02005KT 18/13 A3025 RMK A01 T01780134  RH  075%=      5-min Rain = 0
KVP1 141144Z 01006KT 18/13 A3025 RMK A01 T01790134  RH  075%=      5-min Rain = 0
KVP1 141145Z 36006KT 18/13 A3026 RMK A01 T01790134  RH  075%=      5-min Rain = 0
KVP1 141146Z 36006KT 18/13 A3026 RMK A01 T01790134  RH  075%=      5-min Rain = 0
KVP1 141147Z 36007KT 18/13 A3026 RMK A01 T01780134  RH  075%=      5-min Rain = 0
KVP1 141148Z 00007KT 18/13 A3026 RMK A01 T01770134  RH  076%=      5-min Rain = 0
KVP1 141149Z 01007KT 18/13 A3026 RMK A01 T01770134  RH  076%=      5-min Rain = 0
KVP1 141150Z 01006KT 18/13 A3026 RMK A01 T01770134  RH  076%=      5-min Rain = 0
KVP1 141151Z 02004KT 18/13 A3026 RMK A01 T01770134  RH  076%=      5-min Rain = 0
KVP1 141152Z 04004KT 18/14 A3025 RMK A01 T01780135  RH  076%=      5-min Rain = 0
KVP1 141153Z 06004KT 18/13 A3025 RMK A01 T01780134  RH  076%=      5-min Rain = 0
KVP1 141154Z 07004KT 18/13 A3025 RMK A01 T01770133  RH  076%=      5-min Rain = 0
KVP1 141155Z 07005KT 18/13 A3025 RMK A01 T01760133  RH  076%=      5-min Rain = 0
KVP1 141156Z 05006KT 18/13 A3025 RMK A01 T01750133  RH  076%=      5-min Rain = 0
KVP1 141157Z 03007KT 17/13 A3026 RMK A01 T01740133  RH  077%=      5-min Rain = 0
KVP1 141158Z 03006KT 17/13 A3026 RMK A01 T01730133  RH  077%=      5-min Rain = 0
KVP1 141159Z 04005KT 17/13 A3026 RMK A01 T01730134  RH  077%=      5-min Rain = 0
KVP1 141200Z 06005KT 17/13 A3025 RMK A01 T01730133  RH  077%=      5-min Rain = 0
KVP1 141201Z 05005KT 17/13 A3025 RMK A01 T01740134  RH  077%=      5-min Rain = 0
KVP1 141202Z 02006KT 17/13 A3026 RMK A01 T01740134  RH  077%=      5-min Rain = 0
KVP1 141203Z 01006KT 18/13 A3026 RMK A01 T01750134  RH  077%=      5-min Rain = 0
KVP1 141204Z 01006KT 18/13 A3027 RMK A01 T01750134  RH  077%=      5-min Rain = 0
KVP1 141205Z 01005KT 18/13 A3027 RMK A01 T01750134  RH  077%=      5-min Rain = 0
KVP1 141206Z 03004KT 18/13 A3026 RMK A01 T01750134  RH  077%=      5-min Rain = 0
KVP1 141207Z 05003KT 18/13 A3026 RMK A01 T01750133  RH  076%=      5-min Rain = 0
KVP1 141208Z 03003KT 18/13 A3026 RMK A01 T01750133  RH  076%=      5-min Rain = 0
KVP1 141209Z 01004KT 17/13 A3026 RMK A01 T01740133  RH  077%=      5-min Rain = 0
KVP1 141210Z 01005KT 17/13 A3027 RMK A01 T01740133  RH  077%=      5-min Rain = 0
KVP1 141211Z 01005KT 17/13 A3027 RMK A01 T01740133  RH  077%=      5-min Rain = 0
KVP1 141212Z 02004KT 17/13 A3027 RMK A01 T01740133  RH  077%=      5-min Rain = 0
KVP1 141213Z 02004KT 17/13 A3027 RMK A01 T01740133  RH  077%=      5-min Rain = 0
KVP1 141214Z 01004KT 17/13 A3027 RMK A01 T01740133  RH  077%=      5-min Rain = 0
KVP1 141215Z 00006KT 17/13 A3027 RMK A01 T01740133  RH  077%=      5-min Rain = 0
KVP1 141216Z 36005KT 17/13 A3027 RMK A01 T01730133  RH  077%=      5-min Rain = 0
KVP1 141217Z 00004KT 17/13 A3027 RMK A01 T01730133  RH  077%=      5-min Rain = 0
KVP1 141218Z 03002KT 17/13 A3026 RMK A01 T01730132  RH  077%=      5-min Rain = 0
KVP1 141219Z 07002KT 17/13 A3026 RMK A01 T01740132  RH  077%=      5-min Rain = 0
KVP1 141220Z 08003KT 17/13 A3026 RMK A01 T01740132  RH  077%=      5-min Rain = 0
KVP1 141221Z 07003KT 17/13 A3026 RMK A01 T01730132  RH  077%=      5-min Rain = 0
KVP1 141222Z 06003KT 17/13 A3026 RMK A01 T01730132  RH  077%=      5-min Rain = 0
KVP1 141223Z 06003KT 17/13 A3026 RMK A01 T01730132  RH  076%=      5-min Rain = 0
KVP1 141224Z 04002KT 17/13 A3026 RMK A01 T01730132  RH  076%=      5-min Rain = 0
KVP1 141225Z 01004KT 17/13 A3026 RMK A01 T01730132  RH  077%=      5-min Rain = 0
KVP1 141226Z 36005KT 17/13 A3026 RMK A01 T01730132  RH  077%=      5-min Rain = 0
KVP1 141227Z 00004KT 17/13 A3026 RMK A01 T01730133  RH  077%=      5-min Rain = 0
KVP1 141228Z 01003KT 17/13 A3026 RMK A01 T01730133  RH  077%=      5-min Rain = 0
KVP1 141229Z 05002KT 17/13 A3026 RMK A01 T01730133  RH  077%=      5-min Rain = 0
KVP1 141230Z 09002KT 17/13 A3025 RMK A01 T01740133  RH  077%=      5-min Rain = 0
KVP1 141231Z 10002KT 18/13 A3025 RMK A01 T01750133  RH  076%=      5-min Rain = 0
KVP1 141232Z 12003KT 18/13 A3025 RMK A01 T01750133  RH  076%=      5-min Rain = 0
KVP1 141233Z 12003KT 18/13 A3025 RMK A01 T01760133  RH  076%=      5-min Rain = 0
KVP1 141234Z 13003KT 18/13 A3025 RMK A01 T01760134  RH  076%=      5-min Rain = 0
KVP1 141235Z 12002KT 18/13 A3025 RMK A01 T01760133  RH  076%=      5-min Rain = 0
KVP1 141236Z 08001KT 18/13 A3025 RMK A01 T01770134  RH  076%=      5-min Rain = 0
KVP1 141237Z 04002KT 18/13 A3025 RMK A01 T01780134  RH  075%=      5-min Rain = 0
KVP1 141238Z 02003KT 18/13 A3025 RMK A01 T01780133  RH  075%=      5-min Rain = 0
KVP1 141239Z 02002KT 18/13 A3025 RMK A01 T01780133  RH  075%=      5-min Rain = 0
KVP1 141240Z 03002KT 18/13 A3025 RMK A01 T01780133  RH  075%=      5-min Rain = 0
KVP1 141241Z 05002KT 18/13 A3025 RMK A01 T01790134  RH  075%=      5-min Rain = 0
KVP1 141242Z 06003KT 18/13 A3025 RMK A01 T01790133  RH  075%=      5-min Rain = 0
KVP1 141243Z 06002KT 18/13 A3025 RMK A01 T01790133  RH  074%=      5-min Rain = 0
KVP1 141244Z 03003KT 18/13 A3025 RMK A01 T01800133  RH  074%=      5-min Rain = 0
KVP1 141245Z 36005KT 18/13 A3026 RMK A01 T01800134  RH  074%=      5-min Rain = 0
KVP1 141246Z 35006KT 18/13 A3026 RMK A01 T01800134  RH  075%=      5-min Rain = 0
KVP1 141247Z 34006KT 18/13 A3026 RMK A01 T01800134  RH  075%=      5-min Rain = 0
KVP1 141248Z 34004KT 18/13 A3026 RMK A01 T01800134  RH  075%=      5-min Rain = 0
KVP1 141249Z 33003KT 18/14 A3026 RMK A01 T01800135  RH  075%=      5-min Rain = 0
KVP1 141250Z 34004KT 18/13 A3026 RMK A01 T01790134  RH  075%=      5-min Rain = 0
KVP1 141251Z 34005KT 18/13 A3027 RMK A01 T01790134  RH  075%=      5-min Rain = 0
KVP1 141252Z 34006KT 18/13 A3027 RMK A01 T01790134  RH  075%=      5-min Rain = 0
KVP1 141253Z 35005KT 18/13 A3027 RMK A01 T01790134  RH  075%=      5-min Rain = 0
KVP1 141254Z 36004KT 18/13 A3027 RMK A01 T01790133  RH  074%=      5-min Rain = 0
KVP1 141255Z 00003KT 18/13 A3027 RMK A01 T01800133  RH  074%=      5-min Rain = 0
KVP1 141256Z 35003KT 18/13 A3027 RMK A01 T01800133  RH  074%=      5-min Rain = 0
KVP1 141257Z 35004KT 18/13 A3027 RMK A01 T01800133  RH  074%=      5-min Rain = 0
KVP1 141258Z 35005KT 18/13 A3027 RMK A01 T01800133  RH  074%=      5-min Rain = 0
KVP1 141259Z 34005KT 18/13 A3027 RMK A01 T01810133  RH  074%=      5-min Rain = 0
KVP1 141300Z 34005KT 18/13 A3027 RMK A01 T01810134  RH  074%=      5-min Rain = 0
KVP1 141301Z 33005KT 18/13 A3027 RMK A01 T01820134  RH  074%=      5-min Rain = 0
KVP1 141302Z 33005KT 18/13 A3027 RMK A01 T01820134  RH  073%=      5-min Rain = 0
KVP1 141303Z 34005KT 18/13 A3027 RMK A01 T01830134  RH  073%=      5-min Rain = 0
KVP1 141304Z 33006KT 18/13 A3028 RMK A01 T01830134  RH  073%=      5-min Rain = 0
KVP1 141305Z 33007KT 18/13 A3028 RMK A01 T01840134  RH  073%=      5-min Rain = 0
KVP1 141306Z 33006KT 18/13 A3028 RMK A01 T01840134  RH  073%=      5-min Rain = 0
KVP1 141307Z 33005KT 18/13 A3028 RMK A01 T01840134  RH  073%=      5-min Rain = 0
KVP1 141308Z 33005KT 19/14 A3028 RMK A01 T01850135  RH  073%=      5-min Rain = 0
KVP1 141309Z 33005KT 19/14 A3028 RMK A01 T01850135  RH  073%=      5-min Rain = 0
KVP1 141310Z 33005KT 19/13 A3028 RMK A01 T01850134  RH  072%=      5-min Rain = 0
KVP1 141311Z 33005KT 19/14 A3028 RMK A01 T01850135  RH  072%=      5-min Rain = 0
KVP1 141312Z 33004KT 19/14 A3028 RMK A01 T01850135  RH  072%=      5-min Rain = 0
KVP1 141313Z 33005KT 19/14 A3028 RMK A01 T01850135  RH  072%=      5-min Rain = 0
KVP1 141314Z 33005KT 19/14 A3028 RMK A01 T01850135  RH  072%=      5-min Rain = 0
KVP1 141315Z 32005KT 19/14 A3028 RMK A01 T01860135  RH  072%=      5-min Rain = 0
KVP1 141316Z 32005KT 19/14 A3028 RMK A01 T01860135  RH  072%=      5-min Rain = 0
KVP1 141317Z 32006KT 19/14 A3028 RMK A01 T01870135  RH  072%=      5-min Rain = 0
KVP1 141318Z 32005KT 19/14 A3028 RMK A01 T01870135  RH  072%=      5-min Rain = 0
KVP1 141319Z 32006KT 19/14 A3028 RMK A01 T01870135  RH  072%=      5-min Rain = 0
KVP1 141320Z 32006KT 19/14 A3028 RMK A01 T01880135  RH  071%=      5-min Rain = 0
KVP1 141321Z 32006KT 19/14 A3028 RMK A01 T01880135  RH  071%=      5-min Rain = 0
KVP1 141322Z 32005KT 19/13 A3028 RMK A01 T01880134  RH  071%=      5-min Rain = 0
KVP1 141323Z 33005KT 19/13 A3028 RMK A01 T01880134  RH  071%=      5-min Rain = 0
KVP1 141324Z 33005KT 19/14 A3028 RMK A01 T01890135  RH  071%=      5-min Rain = 0
KVP1 141325Z 33005KT 19/14 A3028 RMK A01 T01890135  RH  071%=      5-min Rain = 0
KVP1 141326Z 34005KT 19/14 A3028 RMK A01 T01900135  RH  070%=      5-min Rain = 0
KVP1 141327Z 33005KT 19/13 A3028 RMK A01 T01900134  RH  070%=      5-min Rain = 0
KVP1 141328Z 33005KT 19/13 A3028 RMK A01 T01900134  RH  070%=      5-min Rain = 0
KVP1 141329Z 33004KT 19/14 A3028 RMK A01 T01910135  RH  070%=      5-min Rain = 0
KVP1 141330Z 32005KT 19/14 A3028 RMK A01 T01920135  RH  070%=      5-min Rain = 0
KVP1 141331Z 31005KT 19/14 A3028 RMK A01 T01920135  RH  069%=      5-min Rain = 0
KVP1 141332Z 31005KT 19/14 A3028 RMK A01 T01930135  RH  069%=      5-min Rain = 0
KVP1 141333Z 32005KT 19/14 A3028 RMK A01 T01930135  RH  069%=      5-min Rain = 0
KVP1 141334Z 31004KT 19/14 A3028 RMK A01 T01940135  RH  069%=      5-min Rain = 0
KVP1 141335Z 31004KT 19/14 A3028 RMK A01 T01940135  RH  069%=      5-min Rain = 0
KVP1 141336Z 31004KT 19/14 A3028 RMK A01 T01940135  RH  069%=      5-min Rain = 0
KVP1 141337Z 31004KT 20/14 A3028 RMK A01 T01950136  RH  068%=      5-min Rain = 0
KVP1 141338Z 31005KT 20/14 A3028 RMK A01 T01950135  RH  068%=      5-min Rain = 0
KVP1 141339Z 31006KT 20/14 A3028 RMK A01 T01960136  RH  068%=      5-min Rain = 0
KVP1 141340Z 31006KT 20/14 A3029 RMK A01 T01960135  RH  068%=      5-min Rain = 0
KVP1 141341Z 30005KT 20/14 A3029 RMK A01 T01970135  RH  068%=      5-min Rain = 0
KVP1 141342Z 29005KT 20/14 A3029 RMK A01 T01970136  RH  068%=      5-min Rain = 0
KVP1 141343Z 29004KT 20/14 A3029 RMK A01 T01970135  RH  067%=      5-min Rain = 0
KVP1 141344Z 27004KT 20/14 A3028 RMK A01 T01970136  RH  068%=      5-min Rain = 0
KVP1 141345Z 27004KT 20/14 A3028 RMK A01 T01970135  RH  067%=      5-min Rain = 0
KVP1 141346Z 27004KT 20/14 A3028 RMK A01 T01970135  RH  067%=      5-min Rain = 0
KVP1 141347Z 26004KT 20/14 A3028 RMK A01 T01970135  RH  067%=      5-min Rain = 0
KVP1 141348Z 25004KT 20/14 A3028 RMK A01 T01970135  RH  067%=      5-min Rain = 0
KVP1 141349Z 25004KT 20/14 A3028 RMK A01 T01970136  RH  068%=      5-min Rain = 0
KVP1 141350Z 25004KT 20/14 A3028 RMK A01 T01970136  RH  068%=      5-min Rain = 0
KVP1 141351Z 25004KT 20/14 A3028 RMK A01 T01970136  RH  068%=      5-min Rain = 0
KVP1 141352Z 25003KT 20/14 A3028 RMK A01 T01970137  RH  068%=      5-min Rain = 0
KVP1 141353Z 25003KT 20/14 A3028 RMK A01 T01970138  RH  069%=      5-min Rain = 0
KVP1 141354Z 24003KT 20/14 A3028 RMK A01 T01970137  RH  068%=      5-min Rain = 0
KVP1 141355Z 24003KT 20/14 A3028 RMK A01 T01970137  RH  068%=      5-min Rain = 0
KVP1 141356Z 25002KT 20/14 A3028 RMK A01 T01970138  RH  069%=      5-min Rain = 0
KVP1 141357Z 25002KT 20/14 A3028 RMK A01 T01970137  RH  069%=      5-min Rain = 0
KVP1 141358Z 25002KT 20/14 A3028 RMK A01 T01960137  RH  069%=      5-min Rain = 0
KVP1 141359Z 24002KT 20/14 A3027 RMK A01 T01960138  RH  069%=      5-min Rain = 0
KVP1 141400Z 24002KT 20/14 A3027 RMK A01 T01960138  RH  069%=      5-min Rain = 0
KVP1 141401Z 25003KT 20/14 A3027 RMK A01 T01960138  RH  069%=      5-min Rain = 0
KVP1 141402Z 25003KT 20/14 A3027 RMK A01 T01960138  RH  069%=      5-min Rain = 0
KVP1 141403Z 25003KT 20/14 A3027 RMK A01 T01960138  RH  069%=      5-min Rain = 0
KVP1 141404Z 24003KT 20/14 A3027 RMK A01 T01960138  RH  069%=      5-min Rain = 0
KVP1 141405Z 23003KT 20/14 A3027 RMK A01 T01970138  RH  069%=      5-min Rain = 0
KVP1 141406Z 22003KT 20/14 A3027 RMK A01 T01970138  RH  069%=      5-min Rain = 0
KVP1 141407Z 22003KT 20/14 A3027 RMK A01 T01970138  RH  069%=      5-min Rain = 0
KVP1 141408Z 22003KT 20/14 A3027 RMK A01 T01970138  RH  069%=      5-min Rain = 0
KVP1 141409Z 22003KT 20/14 A3027 RMK A01 T01970138  RH  069%=      5-min Rain = 0
KVP1 141410Z 23003KT 20/14 A3027 RMK A01 T01970137  RH  068%=      5-min Rain = 0
KVP1 141411Z 24004KT 20/14 A3028 RMK A01 T01980138  RH  068%=      5-min Rain = 0
KVP1 141412Z 25005KT 20/14 A3028 RMK A01 T01980138  RH  068%=      5-min Rain = 0
KVP1 141413Z 25005KT 20/14 A3028 RMK A01 T01980138  RH  068%=      5-min Rain = 0
KVP1 141414Z 25004KT 20/14 A3028 RMK A01 T01990138  RH  068%=      5-min Rain = 0
KVP1 141415Z 24004KT 20/14 A3028 RMK A01 T01980139  RH  069%=      5-min Rain = 0
KVP1 141416Z 24004KT 20/14 A3028 RMK A01 T01990140  RH  069%=      5-min Rain = 0
KVP1 141417Z 23004KT 20/14 A3027 RMK A01 T01990141  RH  069%=      5-min Rain = 0
KVP1 141418Z 24004KT 20/14 A3027 RMK A01 T01990139  RH  069%=      5-min Rain = 0
KVP1 141419Z 22003KT 20/14 A3027 RMK A01 T01990139  RH  068%=      5-min Rain = 0
KVP1 141420Z 22003KT 20/14 A3027 RMK A01 T01990139  RH  068%=      5-min Rain = 0
KVP1 141421Z 21002KT 20/14 A3027 RMK A01 T01990138  RH  068%=      5-min Rain = 0
KVP1 141422Z 20003KT 20/14 A3027 RMK A01 T02000137  RH  067%=      5-min Rain = 0
KVP1 141423Z 19002KT 20/14 A3027 RMK A01 T02000136  RH  067%=      5-min Rain = 0
KVP1 141424Z 18002KT 20/14 A3027 RMK A01 T02000136  RH  067%=      5-min Rain = 0
KVP1 141425Z 17003KT 20/14 A3027 RMK A01 T02010136  RH  066%=      5-min Rain = 0
KVP1 141426Z 16003KT 20/14 A3027 RMK A01 T02020136  RH  066%=      5-min Rain = 0
KVP1 141427Z 16003KT 20/14 A3026 RMK A01 T02020136  RH  066%=      5-min Rain = 0
KVP1 141428Z 16003KT 20/14 A3026 RMK A01 T02030136  RH  065%=      5-min Rain = 0
KVP1 141429Z 17004KT 20/14 A3026 RMK A01 T02030137  RH  065%=      5-min Rain = 0
KVP1 141430Z 17004KT 20/14 A3026 RMK A01 T02040137  RH  066%=      5-min Rain = 0
KVP1 141431Z 17005KT 20/14 A3026 RMK A01 T02040137  RH  065%=      5-min Rain = 0
KVP1 141432Z 17005KT 20/14 A3025 RMK A01 T02040137  RH  065%=      5-min Rain = 0
KVP1 141433Z 16005KT 21/14 A3025 RMK A01 T02050138  RH  065%=      5-min Rain = 0
KVP1 141434Z 16005KT 21/14 A3025 RMK A01 T02060139  RH  066%=      5-min Rain = 0
KVP1 141435Z 15004KT 21/14 A3025 RMK A01 T02060139  RH  066%=      5-min Rain = 0
KVP1 141436Z 16002KT 21/14 A3025 RMK A01 T02070140  RH  066%=      5-min Rain = 0
KVP1 141437Z 21001KT 21/14 A3026 RMK A01 T02070140  RH  065%=      5-min Rain = 0
KVP1 141438Z 24001KT 21/14 A3026 RMK A01 T02070140  RH  065%=      5-min Rain = 0
KVP1 141439Z 23001KT 21/14 A3026 RMK A01 T02070139  RH  065%=      5-min Rain = 0
KVP1 141440Z 22002KT 21/14 A3026 RMK A01 T02080138  RH  064%=      5-min Rain = 0
KVP1 141441Z 23002KT 21/14 A3026 RMK A01 T02080137  RH  064%=      5-min Rain = 0
KVP1 141442Z 24003KT 21/14 A3026 RMK A01 T02080138  RH  064%=      5-min Rain = 0
KVP1 141443Z 24004KT 21/14 A3026 RMK A01 T02090138  RH  064%=      5-min Rain = 0
KVP1 141444Z 25005KT 21/14 A3026 RMK A01 T02090138  RH  064%=      5-min Rain = 0
KVP1 141445Z 26008KT 21/14 A3027 RMK A01 T02090139  RH  064%=      5-min Rain = 0
KVP1 141446Z 26009KT 21/14 A3027 RMK A01 T02100142  RH  065%=      5-min Rain = 0
KVP1 141447Z 26008KT 21/15 A3027 RMK A01 T02090146  RH  067%=      5-min Rain = 0
KVP1 141448Z 24008KT 21/15 A3027 RMK A01 T02090146  RH  067%=      5-min Rain = 0
KVP1 141449Z 23007KT 21/15 A3026 RMK A01 T02080145  RH  067%=      5-min Rain = 0
KVP1 141450Z 23007KT 21/14 A3026 RMK A01 T02080144  RH  067%=      5-min Rain = 0
KVP1 141451Z 23006KT 21/14 A3026 RMK A01 T02080141  RH  066%=      5-min Rain = 0
KVP1 141452Z 23006KT 21/14 A3026 RMK A01 T02080141  RH  065%=      5-min Rain = 0
KVP1 141453Z 22007KT 21/14 A3026 RMK A01 T02090140  RH  065%=      5-min Rain = 0
KVP1 141454Z 21006KT 21/14 A3026 RMK A01 T02100140  RH  064%=      5-min Rain = 0
KVP1 141455Z 21005KT 21/14 A3025 RMK A01 T02100139  RH  064%=      5-min Rain = 0
KVP1 141456Z 21005KT 21/14 A3025 RMK A01 T02110140  RH  064%=      5-min Rain = 0
KVP1 141457Z 21006KT 21/14 A3025 RMK A01 T02120140  RH  064%=      5-min Rain = 0
KVP1 141458Z 20006KT 21/14 A3025 RMK A01 T02120140  RH  063%=      5-min Rain = 0
KVP1 141459Z 20006KT 21/14 A3025 RMK A01 T02120140  RH  063%=      5-min Rain = 0
KVP1 141500Z 20006KT 21/14 A3025 RMK A01 T02120140  RH  063%=      5-min Rain = 0
KVP1 141501Z 21006KT 21/14 A3025 RMK A01 T02130140  RH  063%=      5-min Rain = 0
KVP1 141502Z 22004KT 21/14 A3025 RMK A01 T02130141  RH  063%=      5-min Rain = 0
KVP1 141503Z 22003KT 21/14 A3025 RMK A01 T02140142  RH  063%=      5-min Rain = 0
KVP1 141504Z 20004KT 22/14 A3025 RMK A01 T02150142  RH  063%=      5-min Rain = 0
KVP1 141505Z 19005KT 22/14 A3024 RMK A01 T02150143  RH  063%=      5-min Rain = 0
KVP1 141506Z 19004KT 22/14 A3024 RMK A01 T02160142  RH  063%=      5-min Rain = 0
KVP1 141507Z 21004KT 22/14 A3024 RMK A01 T02150143  RH  063%=      5-min Rain = 0
KVP1 141508Z 22004KT 22/14 A3025 RMK A01 T02160143  RH  063%=      5-min Rain = 0
KVP1 141509Z 24004KT 22/14 A3025 RMK A01 T02160143  RH  063%=      5-min Rain = 0
KVP1 141510Z 26004KT 22/14 A3025 RMK A01 T02170143  RH  063%=      5-min Rain = 0
KVP1 141511Z 27004KT 22/14 A3025 RMK A01 T02170142  RH  062%=      5-min Rain = 0
KVP1 141512Z 27003KT 22/14 A3026 RMK A01 T02170142  RH  062%=      5-min Rain = 0
KVP1 141513Z 26001KT 22/14 A3026 RMK A01 T02160142  RH  063%=      5-min Rain = 0
KVP1 141514Z 26000KT 22/14 A3026 RMK A01 T02170143  RH  063%=      5-min Rain = 0
KVP1 141515Z 28001KT 22/14 A3026 RMK A01 T02170142  RH  062%=      5-min Rain = 0
KVP1 141516Z 28003KT 22/14 A3026 RMK A01 T02170143  RH  063%=      5-min Rain = 0
KVP1 141517Z 28004KT 22/14 A3026 RMK A01 T02170144  RH  063%=      5-min Rain = 0
KVP1 141518Z 27004KT 22/14 A3026 RMK A01 T02170144  RH  063%=      5-min Rain = 0
KVP1 141519Z 27003KT 22/14 A3026 RMK A01 T02170144  RH  063%=      5-min Rain = 0
KVP1 141520Z 27003KT 22/14 A3026 RMK A01 T02180144  RH  063%=      5-min Rain = 0
KVP1 141521Z 28004KT 22/15 A3026 RMK A01 T02180145  RH  063%=      5-min Rain = 0
KVP1 141522Z 29004KT 22/15 A3026 RMK A01 T02180145  RH  063%=      5-min Rain = 0
KVP1 141523Z 30004KT 22/15 A3027 RMK A01 T02190145  RH  063%=      5-min Rain = 0
KVP1 141524Z 29004KT 22/15 A3027 RMK A01 T02190145  RH  063%=      5-min Rain = 0
KVP1 141525Z 30003KT 22/15 A3027 RMK A01 T02200145  RH  062%=      5-min Rain = 0
KVP1 141526Z 32002KT 22/15 A3026 RMK A01 T02210145  RH  062%=      5-min Rain = 0
KVP1 141527Z 31001KT 22/15 A3026 RMK A01 T02210146  RH  062%=      5-min Rain = 0
KVP1 141528Z 22002KT 22/15 A3026 RMK A01 T02220145  RH  062%=      5-min Rain = 0
KVP1 141529Z 20003KT 22/15 A3026 RMK A01 T02230148  RH  062%=      5-min Rain = 0
KVP1 141530Z 18003KT 23/15 A3026 RMK A01 T02250151  RH  063%=      5-min Rain = 0
KVP1 141531Z 18003KT 23/15 A3026 RMK A01 T02260150  RH  062%=      5-min Rain = 0
KVP1 141532Z 17004KT 23/15 A3026 RMK A01 T02270150  RH  062%=      5-min Rain = 0
KVP1 141533Z 18003KT 23/15 A3026 RMK A01 T02260151  RH  062%=      5-min Rain = 0
KVP1 141534Z 20003KT 23/15 A3026 RMK A01 T02280150  RH  061%=      5-min Rain = 0
KVP1 141535Z 18003KT 23/15 A3026 RMK A01 T02280149  RH  061%=      5-min Rain = 0
KVP1 141536Z 18003KT 23/15 A3026 RMK A01 T02290149  RH  061%=      5-min Rain = 0
KVP1 141537Z 19002KT 23/15 A3026 RMK A01 T02290149  RH  061%=      5-min Rain = 0
KVP1 141538Z 16003KT 23/15 A3026 RMK A01 T02290149  RH  061%=      5-min Rain = 0
KVP1 141539Z 17003KT 23/15 A3025 RMK A01 T02300150  RH  060%=      5-min Rain = 0
KVP1 141540Z 18002KT 23/15 A3025 RMK A01 T02310149  RH  060%=      5-min Rain = 0
KVP1 141541Z 18003KT 23/15 A3025 RMK A01 T02320150  RH  060%=      5-min Rain = 0
KVP1 141542Z 16002KT 23/15 A3025 RMK A01 T02320151  RH  060%=      5-min Rain = 0
KVP1 141543Z 14003KT 23/15 A3025 RMK A01 T02320151  RH  061%=      5-min Rain = 0
KVP1 141544Z 13003KT 23/15 A3025 RMK A01 T02330153  RH  061%=      5-min Rain = 0
KVP1 141545Z 12003KT 23/15 A3025 RMK A01 T02330152  RH  060%=      5-min Rain = 0
KVP1 141546Z 13004KT 24/15 A3025 RMK A01 T02360153  RH  060%=      5-min Rain = 0
KVP1 141547Z 14004KT 24/15 A3025 RMK A01 T02370152  RH  059%=      5-min Rain = 0
KVP1 141548Z 14003KT 24/15 A3025 RMK A01 T02370152  RH  059%=      5-min Rain = 0
KVP1 141549Z 15004KT 24/15 A3025 RMK A01 T02390154  RH  059%=      5-min Rain = 0
KVP1 141550Z 16004KT 24/15 A3025 RMK A01 T02400153  RH  058%=      5-min Rain = 0
KVP1 141551Z 15005KT 24/16 A3024 RMK A01 T02410155  RH  059%=      5-min Rain = 0
KVP1 141552Z 15005KT 24/15 A3024 RMK A01 T02430154  RH  057%=      5-min Rain = 0
KVP1 141553Z 16005KT 24/15 A3024 RMK A01 T02430154  RH  058%=      5-min Rain = 0
KVP1 141554Z 16005KT 24/15 A3024 RMK A01 T02440154  RH  057%=      5-min Rain = 0
KVP1 141555Z 16004KT 25/15 A3024 RMK A01 T02460154  RH  057%=      5-min Rain = 0
KVP1 141556Z 14005KT 25/16 A3024 RMK A01 T02480156  RH  056%=      5-min Rain = 0
KVP1 141557Z 13004KT 25/16 A3025 RMK A01 T02510155  RH  055%=      5-min Rain = 0
KVP1 141558Z 15004KT 25/16 A3025 RMK A01 T02510155  RH  055%=      5-min Rain = 0
KVP1 141559Z 14004KT 25/16 A3025 RMK A01 T02510157  RH  056%=      5-min Rain = 0
KVP1 141600Z 12003KT 25/16 A3025 RMK A01 T02510156  RH  056%=      5-min Rain = 0
KVP1 141601Z 10002KT 25/15 A3025 RMK A01 T02500154  RH  055%=      5-min Rain = 0
KVP1 141602Z 08002KT 25/15 A3025 RMK A01 T02510151  RH  054%=      5-min Rain = 0
KVP1 141603Z 06004KT 25/15 A3025 RMK A01 T02520151  RH  053%=      5-min Rain = 0
KVP1 141604Z 09005KT 25/15 A3025 RMK A01 T02540150  RH  053%=      5-min Rain = 0
KVP1 141605Z 09004KT 26/15 A3024 RMK A01 T02550151  RH  052%=      5-min Rain = 0
KVP1 141606Z 08006KT 26/15 A3024 RMK A01 T02580153  RH  052%=      5-min Rain = 0
KVP1 141607Z 08005KT 26/15 A3024 RMK A01 T02580152  RH  052%=      5-min Rain = 0
KVP1 141608Z 11004KT 26/15 A3024 RMK A01 T02550153  RH  053%=      5-min Rain = 0
KVP1 141609Z 11003KT 25/15 A3024 RMK A01 T02540153  RH  054%=      5-min Rain = 0
KVP1 141610Z 12001KT 26/15 A3024 RMK A01 T02560153  RH  053%=      5-min Rain = 0
KVP1 141611Z 13002KT 26/15 A3024 RMK A01 T02570153  RH  053%=      5-min Rain = 0
KVP1 141612Z 11003KT 26/15 A3025 RMK A01 T02580153  RH  052%=      5-min Rain = 0
KVP1 141613Z 09003KT 26/15 A3025 RMK A01 T02600150  RH  051%=      5-min Rain = 0
KVP1 141614Z 10004KT 26/15 A3025 RMK A01 T02600150  RH  051%=      5-min Rain = 0
KVP1 141615Z 09005KT 26/15 A3025 RMK A01 T02630151  RH  050%=      5-min Rain = 0
KVP1 141616Z 13005KT 26/15 A3025 RMK A01 T02640150  RH  050%=      5-min Rain = 0
KVP1 141617Z 16004KT 27/15 A3026 RMK A01 T02660152  RH  049%=      5-min Rain = 0
KVP1 141618Z 17004KT 27/15 A3026 RMK A01 T02710154  RH  049%=      5-min Rain = 0
KVP1 141619Z 15004KT 27/15 A3026 RMK A01 T02740151  RH  047%=      5-min Rain = 0
KVP1 141620Z 15003KT 28/15 A3027 RMK A01 T02750150  RH  046%=      5-min Rain = 0
KVP1 141621Z 16000KT 27/15 A3027 RMK A01 T02740149  RH  046%=      5-min Rain = 0
KVP1 141622Z 36000KT 27/15 A3027 RMK A01 T02730150  RH  047%=      5-min Rain = 0
KVP1 141623Z 02002KT 27/15 A3027 RMK A01 T02720150  RH  047%=      5-min Rain = 0
KVP1 141624Z 03006KT 27/14 A3027 RMK A01 T02720143  RH  045%=      5-min Rain = 0
KVP1 141625Z 01003KT 27/14 A3027 RMK A01 T02740143  RH  045%=      5-min Rain = 0
KVP1 141626Z 03005KT 27/14 A3027 RMK A01 T02740144  RH  045%=      5-min Rain = 0
KVP1 141627Z 02007KT 27/15 A3027 RMK A01 T02710145  RH  046%=      5-min Rain = 0
KVP1 141628Z 02009KT 27/14 A3027 RMK A01 T02690143  RH  046%=      5-min Rain = 0
KVP1 141629Z 03008KT 27/14 A3027 RMK A01 T02720142  RH  045%=      5-min Rain = 0
KVP1 141630Z 02011KT 27/14 A3027 RMK A01 T02730142  RH  045%=      5-min Rain = 0
KVP1 141631Z 01007KT 27/14 A3027 RMK A01 T02680141  RH  045%=      5-min Rain = 0
KVP1 141632Z 03007G12KT 27/14 A3026 RMK A01 T02650143  RH  047%=      5-min Rain = 0
KVP1 141633Z 05008KT 27/14 A3026 RMK A01 T02650143  RH  047%=      5-min Rain = 0
KVP1 141634Z 03008KT 27/14 A3026 RMK A01 T02660142  RH  046%=      5-min Rain = 0
KVP1 141635Z 03007KT 27/14 A3026 RMK A01 T02670143  RH  046%=      5-min Rain = 0
KVP1 141636Z 03006KT 27/14 A3026 RMK A01 T02660143  RH  047%=      5-min Rain = 0
KVP1 141637Z 04009KT 27/14 A3026 RMK A01 T02670139  RH  045%=      5-min Rain = 0
KVP1 141638Z 02010KT 27/14 A3027 RMK A01 T02680138  RH  045%=      5-min Rain = 0
KVP1 141639Z 03011G17KT 27/14 A3027 RMK A01 T02670140  RH  046%=      5-min Rain = 0
KVP1 141640Z 03012KT 27/14 A3027 RMK A01 T02660141  RH  046%=      5-min Rain = 0
KVP1 141641Z 02011KT 27/14 A3027 RMK A01 T02650142  RH  047%=      5-min Rain = 0
KVP1 141642Z 02012KT 27/14 A3026 RMK A01 T02650140  RH  046%=      5-min Rain = 0
KVP1 141643Z 04008KT 26/14 A3026 RMK A01 T02620139  RH  047%=      5-min Rain = 0
KVP1 141644Z 04010KT 26/14 A3026 RMK A01 T02620140  RH  047%=      5-min Rain = 0
KVP1 141645Z 04011KT 26/14 A3026 RMK A01 T02620141  RH  047%=      5-min Rain = 0
KVP1 141646Z 02009KT 26/14 A3026 RMK A01 T02620143  RH  048%=      5-min Rain = 0
KVP1 141647Z 01011KT 26/14 A3027 RMK A01 T02620140  RH  047%=      5-min Rain = 0
KVP1 141648Z 00012KT 26/14 A3027 RMK A01 T02610141  RH  048%=      5-min Rain = 0
KVP1 141649Z 01009KT 26/14 A3027 RMK A01 T02600142  RH  048%=      5-min Rain = 0
KVP1 141650Z 03008KT 26/14 A3026 RMK A01 T02590143  RH  049%=      5-min Rain = 0
KVP1 141651Z 02007KT 26/14 A3026 RMK A01 T02600143  RH  048%=      5-min Rain = 0
KVP1 141652Z 02007KT 26/14 A3026 RMK A01 T02610141  RH  048%=      5-min Rain = 0
KVP1 141653Z 02007KT 26/14 A3026 RMK A01 T02590141  RH  048%=      5-min Rain = 0
KVP1 141654Z 02006KT 26/14 A3026 RMK A01 T02590140  RH  048%=      5-min Rain = 0
KVP1 141655Z 00007KT 26/14 A3026 RMK A01 T02590141  RH  048%=      5-min Rain = 0
KVP1 141656Z 36008KT 26/14 A3026 RMK A01 T02600141  RH  048%=      5-min Rain = 0
KVP1 141657Z 01008KT 26/14 A3026 RMK A01 T02590142  RH  048%=      5-min Rain = 0
KVP1 141658Z 02007KT 26/14 A3026 RMK A01 T02630143  RH  048%=      5-min Rain = 0
KVP1 141659Z 03007KT 26/14 A3026 RMK A01 T02640142  RH  047%=      5-min Rain = 0
KVP1 141700Z 04009KT 26/14 A3026 RMK A01 T02640141  RH  046%=      5-min Rain = 0
KVP1 141701Z 04005KT 26/14 A3025 RMK A01 T02640141  RH  047%=      5-min Rain = 0
KVP1 141702Z 04006KT 27/14 A3025 RMK A01 T02650140  RH  046%=      5-min Rain = 0
KVP1 141703Z 04006KT 26/14 A3025 RMK A01 T02640140  RH  046%=      5-min Rain = 0
KVP1 141704Z 05007KT 26/14 A3025 RMK A01 T02640140  RH  046%=      5-min Rain = 0
KVP1 141705Z 05008KT 27/14 A3025 RMK A01 T02660137  RH  045%=      5-min Rain = 0
KVP1 141706Z 03009KT 27/13 A3025 RMK A01 T02680125  RH  041%=      5-min Rain = 0
KVP1 141707Z 02009KT 27/13 A3025 RMK A01 T02730127  RH  040%=      5-min Rain = 0
KVP1 141708Z 01007KT 28/12 A3025 RMK A01 T02770123  RH  038%=      5-min Rain = 0
KVP1 141709Z 01012KT 28/12 A3025 RMK A01 T02780124  RH  039%=      5-min Rain = 0
KVP1 141710Z 01011KT 28/12 A3025 RMK A01 T02760124  RH  039%=      5-min Rain = 0
KVP1 141711Z 00010KT 27/13 A3025 RMK A01 T02740126  RH  040%=      5-min Rain = 0
KVP1 141712Z 02009G14KT 27/13 A3025 RMK A01 T02730126  RH  040%=      5-min Rain = 0
KVP1 141713Z 02013KT 27/13 A3025 RMK A01 T02740126  RH  040%=      5-min Rain = 0
KVP1 141714Z 03010KT 27/12 A3025 RMK A01 T02740120  RH  038%=      5-min Rain = 0
KVP1 141715Z 02008KT 27/12 A3025 RMK A01 T02730122  RH  039%=      5-min Rain = 0
KVP1 141716Z 03009KT 27/13 A3025 RMK A01 T02690125  RH  041%=      5-min Rain = 0
KVP1 141717Z 02013KT 27/13 A3025 RMK A01 T02680125  RH  041%=      5-min Rain = 0
KVP1 141718Z 03011KT 27/12 A3025 RMK A01 T02680124  RH  041%=      5-min Rain = 0
KVP1 141719Z 03013KT 27/12 A3025 RMK A01 T02670122  RH  041%=      5-min Rain = 0
KVP1 141720Z 04012KT 27/12 A3025 RMK A01 T02660118  RH  040%=      5-min Rain = 0
KVP1 141721Z 04012KT 26/12 A3025 RMK A01 T02630118  RH  040%=      5-min Rain = 0
KVP1 141722Z 04011KT 26/12 A3025 RMK A01 T02610119  RH  041%=      5-min Rain = 0
KVP1 141723Z 02012KT 26/12 A3025 RMK A01 T02630124  RH  042%=      5-min Rain = 0
KVP1 141724Z 01009KT 26/13 A3025 RMK A01 T02630125  RH  042%=      5-min Rain = 0
KVP1 141725Z 02008KT 26/13 A3025 RMK A01 T02620125  RH  043%=      5-min Rain = 0
KVP1 141726Z 04010KT 27/12 A3025 RMK A01 T02670123  RH  041%=      5-min Rain = 0
KVP1 141727Z 05010KT 27/12 A3025 RMK A01 T02680119  RH  039%=      5-min Rain = 0
KVP1 141728Z 05013KT 27/12 A3025 RMK A01 T02670118  RH  039%=      5-min Rain = 0
KVP1 141729Z 05011KT 26/12 A3025 RMK A01 T02640116  RH  040%=      5-min Rain = 0
KVP1 141730Z 04009KT 26/12 A3025 RMK A01 T02620118  RH  041%=      5-min Rain = 0
KVP1 141731Z 04011KT 26/12 A3025 RMK A01 T02620119  RH  041%=      5-min Rain = 0
KVP1 141732Z 02010KT 26/12 A3025 RMK A01 T02630120  RH  041%=      5-min Rain = 0
KVP1 141733Z 36009KT 26/12 A3025 RMK A01 T02620121  RH  041%=      5-min Rain = 0
KVP1 141734Z 01006KT 26/12 A3025 RMK A01 T02610122  RH  042%=      5-min Rain = 0
KVP1 141735Z 03007KT 26/12 A3025 RMK A01 T02630124  RH  042%=      5-min Rain = 0
KVP1 141736Z 05007KT 27/13 A3026 RMK A01 T02680126  RH  041%=      5-min Rain = 0
KVP1 141737Z 05007KT 27/13 A3026 RMK A01 T02700127  RH  041%=      5-min Rain = 0
KVP1 141738Z 04009KT 27/13 A3026 RMK A01 T02740128  RH  040%=      5-min Rain = 0
KVP1 141739Z 02010KT 27/13 A3026 RMK A01 T02740126  RH  040%=      5-min Rain = 0
KVP1 141740Z 03009KT 27/13 A3026 RMK A01 T02740125  RH  040%=      5-min Rain = 0
KVP1 141741Z 03006KT 27/13 A3026 RMK A01 T02710125  RH  040%=      5-min Rain = 0
KVP1 141742Z 02006KT 27/13 A3025 RMK A01 T02710125  RH  040%=      5-min Rain = 0
KVP1 141743Z 01010KT 27/13 A3025 RMK A01 T02740128  RH  040%=      5-min Rain = 0
KVP1 141744Z 02009KT 28/13 A3025 RMK A01 T02790129  RH  039%=      5-min Rain = 0
KVP1 141745Z 01008KT 28/13 A3025 RMK A01 T02760127  RH  040%=      5-min Rain = 0
KVP1 141746Z 36010KT 27/13 A3025 RMK A01 T02730127  RH  040%=      5-min Rain = 0
KVP1 141747Z 01011KT 27/13 A3025 RMK A01 T02690126  RH  041%=      5-min Rain = 0
KVP1 141748Z 00006KT 27/13 A3025 RMK A01 T02650125  RH  042%=      5-min Rain = 0
KVP1 141749Z 36008KT 26/13 A3025 RMK A01 T02630126  RH  043%=      5-min Rain = 0
KVP1 141750Z 01008KT 26/13 A3025 RMK A01 T02620127  RH  043%=      5-min Rain = 0
KVP1 141751Z 00003KT 26/13 A3025 RMK A01 T02630128  RH  043%=      5-min Rain = 0
KVP1 141752Z 00006KT 27/13 A3025 RMK A01 T02650129  RH  043%=      5-min Rain = 0
KVP1 141753Z 36005KT 27/13 A3025 RMK A01 T02660128  RH  042%=      5-min Rain = 0
KVP1 141754Z 02006KT 27/13 A3025 RMK A01 T02660129  RH  042%=      5-min Rain = 0
KVP1 141755Z 03009KT 27/13 A3025 RMK A01 T02700130  RH  042%=      5-min Rain = 0
KVP1 141756Z 04009KT 27/13 A3025 RMK A01 T02730130  RH  041%=      5-min Rain = 0
KVP1 141757Z 04009KT 27/13 A3025 RMK A01 T02740130  RH  041%=      5-min Rain = 0
KVP1 141758Z 06007KT 28/13 A3025 RMK A01 T02770131  RH  041%=      5-min Rain = 0
KVP1 141759Z 05008KT 28/13 A3024 RMK A01 T02780130  RH  040%=      5-min Rain = 0
KVP1 141800Z 04011KT 28/13 A3024 RMK A01 T02760129  RH  040%=      5-min Rain = 0
KVP1 141801Z 02012G19KT 28/13 A3024 RMK A01 T02770130  RH  040%=      5-min Rain = 0
KVP1 141802Z 00010KT 28/13 A3024 RMK A01 T02810131  RH  040%=      5-min Rain = 0
KVP1 141803Z 00011KT 28/13 A3024 RMK A01 T02800130  RH  039%=      5-min Rain = 0
KVP1 141804Z 36012KT 28/13 A3024 RMK A01 T02780130  RH  040%=      5-min Rain = 0
KVP1 141805Z 01007KT 28/13 A3024 RMK A01 T02800129  RH  039%=      5-min Rain = 0
KVP1 141806Z 01005KT 28/13 A3024 RMK A01 T02810130  RH  039%=      5-min Rain = 0
KVP1 141807Z 04009KT 28/13 A3024 RMK A01 T02840132  RH  039%=      5-min Rain = 0
KVP1 141808Z 03007KT 29/13 A3024 RMK A01 T02870133  RH  039%=      5-min Rain = 0
KVP1 141809Z 03005KT 29/13 A3024 RMK A01 T02890132  RH  038%=      5-min Rain = 0
KVP1 141810Z 03004KT 29/13 A3023 RMK A01 T02880132  RH  038%=      5-min Rain = 0
KVP1 141811Z 03012KT 29/13 A3023 RMK A01 T02860133  RH  039%=      5-min Rain = 0
KVP1 141812Z 01010KT 29/13 A3023 RMK A01 T02880134  RH  039%=      5-min Rain = 0
KVP1 141813Z 36009KT 29/13 A3023 RMK A01 T02920134  RH  038%=      5-min Rain = 0
KVP1 141814Z 36008KT 29/13 A3023 RMK A01 T02900132  RH  038%=      5-min Rain = 0
KVP1 141815Z 34008KT 29/13 A3023 RMK A01 T02860132  RH  039%=      5-min Rain = 0
KVP1 141816Z 01011KT 29/13 A3023 RMK A01 T02860133  RH  039%=      5-min Rain = 0
KVP1 141817Z 03010G15KT 29/13 A3023 RMK A01 T02880134  RH  039%=      5-min Rain = 0
KVP1 141818Z 04011KT 29/13 A3023 RMK A01 T02910133  RH  038%=      5-min Rain = 0
KVP1 141819Z 04008KT 29/13 A3023 RMK A01 T02900132  RH  038%=      5-min Rain = 0
KVP1 141820Z 03008KT 29/13 A3023 RMK A01 T02870131  RH  038%=      5-min Rain = 0
KVP1 141821Z 03012G17KT 29/13 A3023 RMK A01 T02880131  RH  038%=      5-min Rain = 0
KVP1 141822Z 03012KT 29/13 A3023 RMK A01 T02870131  RH  038%=      5-min Rain = 0
KVP1 141823Z 04011G16KT 29/13 A3023 RMK A01 T02860131  RH  038%=      5-min Rain = 0
KVP1 141824Z 05011KT 29/13 A3023 RMK A01 T02880131  RH  038%=      5-min Rain = 0
KVP1 141825Z 05010KT 29/13 A3023 RMK A01 T02890130  RH  038%=      5-min Rain = 0
KVP1 141826Z 05010KT 29/13 A3022 RMK A01 T02890130  RH  038%=      5-min Rain = 0
KVP1 141827Z 03009KT 29/13 A3022 RMK A01 T02920132  RH  038%=      5-min Rain = 0
KVP1 141828Z 02009KT 29/13 A3022 RMK A01 T02940131  RH  037%=      5-min Rain = 0
KVP1 141829Z 04007KT 29/13 A3022 RMK A01 T02920131  RH  037%=      5-min Rain = 0
KVP1 141830Z 04011KT 29/13 A3022 RMK A01 T02930133  RH  037%=      5-min Rain = 0
KVP1 141831Z 04011KT 29/13 A3022 RMK A01 T02940130  RH  036%=      5-min Rain = 0
KVP1 141832Z 04008KT 29/13 A3022 RMK A01 T02890128  RH  037%=      5-min Rain = 0
KVP1 141833Z 04008KT 29/13 A3022 RMK A01 T02870129  RH  038%=      5-min Rain = 0
KVP1 141834Z 02009KT 29/13 A3022 RMK A01 T02880129  RH  038%=      5-min Rain = 0
KVP1 141835Z 03008KT 29/13 A3022 RMK A01 T02910132  RH  038%=      5-min Rain = 0
KVP1 141836Z 04008KT 29/13 A3022 RMK A01 T02940132  RH  037%=      5-min Rain = 0
KVP1 141837Z 04010KT 29/13 A3022 RMK A01 T02940133  RH  037%=      5-min Rain = 0
KVP1 141838Z 04011KT 30/13 A3022 RMK A01 T02980130  RH  036%=      5-min Rain = 0
KVP1 141839Z 04008KT 30/13 A3022 RMK A01 T02960130  RH  036%=      5-min Rain = 0
KVP1 141840Z 07011KT 29/13 A3022 RMK A01 T02930130  RH  037%=      5-min Rain = 0
KVP1 141841Z 08008KT 29/13 A3022 RMK A01 T02900129  RH  037%=      5-min Rain = 0
KVP1 141842Z 09007KT 29/13 A3021 RMK A01 T02880129  RH  038%=      5-min Rain = 0
KVP1 141843Z 07008KT 29/13 A3021 RMK A01 T02890129  RH  037%=      5-min Rain = 0
KVP1 141844Z 06010KT 29/13 A3021 RMK A01 T02900129  RH  037%=      5-min Rain = 0
KVP1 141845Z 04010KT 29/13 A3021 RMK A01 T02920130  RH  037%=      5-min Rain = 0
KVP1 141846Z 05009KT 29/13 A3021 RMK A01 T02930129  RH  036%=      5-min Rain = 0
KVP1 141847Z 02007KT 29/13 A3021 RMK A01 T02920128  RH  036%=      5-min Rain = 0
KVP1 141848Z 02007KT 29/13 A3021 RMK A01 T02910127  RH  037%=      5-min Rain = 0
KVP1 141849Z 03004KT 29/13 A3021 RMK A01 T02890128  RH  037%=      5-min Rain = 0
KVP1 141850Z 06004KT 29/13 A3021 RMK A01 T02890128  RH  037%=      5-min Rain = 0
KVP1 141851Z 10007KT 29/13 A3021 RMK A01 T02910129  RH  037%=      5-min Rain = 0
KVP1 141852Z 12006KT 29/13 A3021 RMK A01 T02920127  RH  036%=      5-min Rain = 0
KVP1 141853Z 08006KT 29/13 A3021 RMK A01 T02880127  RH  037%=      5-min Rain = 0
KVP1 141854Z 07006KT 29/13 A3021 RMK A01 T02910128  RH  037%=      5-min Rain = 0
KVP1 141855Z 09004KT 29/13 A3021 RMK A01 T02920128  RH  036%=      5-min Rain = 0
KVP1 141856Z 07004KT 29/13 A3021 RMK A01 T02920128  RH  037%=      5-min Rain = 0
KVP1 141857Z 04006KT 29/13 A3021 RMK A01 T02940128  RH  036%=      5-min Rain = 0
KVP1 141858Z 06005KT 29/13 A3021 RMK A01 T02940128  RH  036%=      5-min Rain = 0
KVP1 141859Z 09008KT 29/13 A3021 RMK A01 T02940128  RH  036%=      5-min Rain = 0
KVP1 141900Z 09009KT 30/13 A3021 RMK A01 T02950128  RH  036%=      5-min Rain = 0
KVP1 141901Z 09008KT 30/13 A3021 RMK A01 T02970128  RH  035%=      5-min Rain = 0
KVP1 141902Z 09008KT 30/13 A3021 RMK A01 T02960127  RH  035%=      5-min Rain = 0
KVP1 141903Z 09008KT 30/13 A3021 RMK A01 T02960126  RH  035%=      5-min Rain = 0
KVP1 141904Z 11006KT 30/13 A3021 RMK A01 T02960126  RH  035%=      5-min Rain = 0
KVP1 141905Z 08006KT 30/13 A3021 RMK A01 T02960125  RH  035%=      5-min Rain = 0
KVP1 141906Z 10006KT 29/13 A3021 RMK A01 T02940125  RH  035%=      5-min Rain = 0
KVP1 141907Z 10005KT 30/13 A3021 RMK A01 T02950127  RH  035%=      5-min Rain = 0
KVP1 141908Z 12004KT 30/13 A3021 RMK A01 T02960126  RH  035%=      5-min Rain = 0
KVP1 141909Z 13004KT 30/13 A302 RMK A01 T02960126  RH  035%=      5-min Rain = 0
KVP1 141910Z 10005KT 30/13 A302 RMK A01 T02970128  RH  035%=      5-min Rain = 0
KVP1 141911Z 08004KT 30/13 A302 RMK A01 T03010126  RH  034%=      5-min Rain = 0
KVP1 141912Z 11003KT 30/12 A302 RMK A01 T03030124  RH  033%=      5-min Rain = 0
KVP1 141913Z 14003KT 30/12 A302 RMK A01 T03000123  RH  034%=      5-min Rain = 0
KVP1 141914Z 21000KT 30/12 A302 RMK A01 T02960122  RH  034%=      5-min Rain = 0
KVP1 141915Z 16003KT 30/12 A302 RMK A01 T02960123  RH  034%=      5-min Rain = 0
KVP1 141916Z 15004KT 30/12 A302 RMK A01 T02960122  RH  034%=      5-min Rain = 0
KVP1 141917Z 12005KT 30/12 A302 RMK A01 T02980122  RH  034%=      5-min Rain = 0
KVP1 141918Z 18001KT 30/12 A302 RMK A01 T02990121  RH  033%=      5-min Rain = 0
KVP1 141919Z 21001KT 30/12 A302 RMK A01 T02980121  RH  034%=      5-min Rain = 0
KVP1 141920Z 22001KT 30/12 A302 RMK A01 T02960121  RH  034%=      5-min Rain = 0
KVP1 141921Z 25002KT 30/12 A302 RMK A01 T02950121  RH  034%=      5-min Rain = 0
KVP1 141922Z 26003KT 30/12 A302 RMK A01 T02970123  RH  034%=      5-min Rain = 0
KVP1 141923Z 27002KT 30/12 A302 RMK A01 T02990123  RH  034%=      5-min Rain = 0
KVP1 141924Z 14006KT 30/13 A302 RMK A01 T03040127  RH  034%=      5-min Rain = 0
KVP1 141925Z 15005KT 31/13 A302 RMK A01 T03050127  RH  034%=      5-min Rain = 0
KVP1 141926Z 17003KT 30/13 A302 RMK A01 T03020127  RH  034%=      5-min Rain = 0
KVP1 141927Z 16005KT 30/13 A3019 RMK A01 T03030128  RH  034%=      5-min Rain = 0
KVP1 141928Z 15005KT 31/13 A3019 RMK A01 T03050128  RH  034%=      5-min Rain = 0
KVP1 141929Z 16005KT 30/13 A3019 RMK A01 T03040127  RH  034%=      5-min Rain = 0
KVP1 141930Z 14007KT 30/13 A3019 RMK A01 T03010127  RH  034%=      5-min Rain = 0
KVP1 141931Z 15004KT 30/13 A3019 RMK A01 T03000125  RH  034%=      5-min Rain = 0
KVP1 141932Z 20004KT 30/13 A3019 RMK A01 T02990125  RH  034%=      5-min Rain = 0
KVP1 141933Z 21003KT 30/12 A3019 RMK A01 T02990124  RH  034%=      5-min Rain = 0
KVP1 141934Z 21003KT 30/12 A3019 RMK A01 T02990122  RH  034%=      5-min Rain = 0
KVP1 141935Z 18001KT 30/12 A3019 RMK A01 T02980122  RH  034%=      5-min Rain = 0
KVP1 141936Z 22002KT 30/12 A3019 RMK A01 T02980122  RH  034%=      5-min Rain = 0
KVP1 141937Z 13003KT 30/12 A3019 RMK A01 T02990122  RH  034%=      5-min Rain = 0
KVP1 141938Z 14004KT 30/12 A3019 RMK A01 T03020123  RH  033%=      5-min Rain = 0
KVP1 141939Z 18005KT 31/12 A3019 RMK A01 T03050122  RH  033%=      5-min Rain = 0
KVP1 141940Z 18006KT 31/12 A3019 RMK A01 T03050123  RH  033%=      5-min Rain = 0
KVP1 141941Z 17005KT 31/13 A3019 RMK A01 T03050125  RH  033%=      5-min Rain = 0
KVP1 141942Z 17003KT 31/13 A3019 RMK A01 T03050125  RH  033%=      5-min Rain = 0
KVP1 141943Z 20003KT 31/13 A3019 RMK A01 T03070125  RH  033%=      5-min Rain = 0
KVP1 141944Z 18002KT 31/12 A3018 RMK A01 T03080124  RH  032%=      5-min Rain = 0
KVP1 141945Z 08001KT 31/12 A3018 RMK A01 T03070123  RH  032%=      5-min Rain = 0
KVP1 141946Z 17003KT 31/12 A3018 RMK A01 T03080124  RH  032%=      5-min Rain = 0
KVP1 141947Z 11005KT 31/13 A3018 RMK A01 T03100126  RH  033%=      5-min Rain = 0
KVP1 141948Z 10007KT 31/13 A3018 RMK A01 T03120128  RH  032%=      5-min Rain = 0
KVP1 141949Z 12007KT 31/13 A3018 RMK A01 T03120127  RH  032%=      5-min Rain = 0
KVP1 141950Z 13006KT 31/13 A3018 RMK A01 T03080126  RH  033%=      5-min Rain = 0
KVP1 141951Z 14007KT 31/13 A3018 RMK A01 T03070126  RH  033%=      5-min Rain = 0
KVP1 141952Z 15007KT 31/13 A3018 RMK A01 T03050125  RH  033%=      5-min Rain = 0
KVP1 141953Z 19004KT 30/13 A3018 RMK A01 T03040125  RH  033%=      5-min Rain = 0
KVP1 141954Z 14004KT 30/13 A3018 RMK A01 T03030126  RH  034%=      5-min Rain = 0
KVP1 141955Z 12006KT 31/13 A3018 RMK A01 T03050127  RH  034%=      5-min Rain = 0
KVP1 141956Z 10006KT 31/13 A3018 RMK A01 T03090127  RH  033%=      5-min Rain = 0
KVP1 141957Z 09004KT 31/13 A3018 RMK A01 T03120126  RH  032%=      5-min Rain = 0
KVP1 141958Z 04002KT 31/13 A3018 RMK A01 T03110125  RH  032%=      5-min Rain = 0
KVP1 141959Z 12006KT 31/13 A3018 RMK A01 T03110126  RH  032%=      5-min Rain = 0
KVP1 142000Z 13005KT 31/13 A3018 RMK A01 T03110125  RH  032%=      5-min Rain = 0
KVP1 142001Z 09008KT 31/13 A3018 RMK A01 T03110127  RH  032%=      5-min Rain = 0
KVP1 142002Z 09010KT 31/13 A3019 RMK A01 T03110126  RH  032%=      5-min Rain = 0
KVP1 142003Z 10008KT 31/13 A3019 RMK A01 T03100125  RH  032%=      5-min Rain = 0
KVP1 142004Z 10006KT 31/13 A3019 RMK A01 T03080125  RH  033%=      5-min Rain = 0
KVP1 142005Z 12005KT 31/12 A3019 RMK A01 T03050124  RH  033%=      5-min Rain = 0
KVP1 142006Z 12006KT 31/13 A3019 RMK A01 T03070126  RH  033%=      5-min Rain = 0
KVP1 142007Z 11004KT 31/12 A3019 RMK A01 T03100124  RH  032%=      5-min Rain = 0
KVP1 142008Z 14005KT 31/13 A3019 RMK A01 T03110125  RH  032%=      5-min Rain = 0
KVP1 142009Z 15005KT 31/13 A3019 RMK A01 T03110125  RH  032%=      5-min Rain = 0
KVP1 142010Z 20005KT 31/12 A3018 RMK A01 T03100124  RH  032%=      5-min Rain = 0
KVP1 142011Z 19003KT 31/12 A3018 RMK A01 T03080124  RH  033%=      5-min Rain = 0
KVP1 142012Z 08006KT 31/13 A3018 RMK A01 T03080125  RH  033%=      5-min Rain = 0
KVP1 142013Z 09005KT 31/12 A3018 RMK A01 T03090123  RH  032%=      5-min Rain = 0
KVP1 142014Z 06006KT 31/12 A3018 RMK A01 T03090122  RH  032%=      5-min Rain = 0
KVP1 142015Z 03003KT 31/12 A3018 RMK A01 T03090121  RH  032%=      5-min Rain = 0
KVP1 142016Z 04007KT 31/12 A3018 RMK A01 T03100122  RH  032%=      5-min Rain = 0
KVP1 142017Z 03006KT 31/12 A3018 RMK A01 T03110121  RH  031%=      5-min Rain = 0
KVP1 142018Z 03006KT 31/12 A3018 RMK A01 T03100122  RH  031%=      5-min Rain = 0
KVP1 142019Z 02006KT 31/12 A3018 RMK A01 T03100122  RH  032%=      5-min Rain = 0
KVP1 142020Z 03006KT 31/12 A3018 RMK A01 T03120122  RH  031%=      5-min Rain = 0
KVP1 142021Z 06007KT 32/12 A3018 RMK A01 T03150124  RH  031%=      5-min Rain = 0
KVP1 142022Z 07008KT 32/13 A3018 RMK A01 T03190125  RH  031%=      5-min Rain = 0
KVP1 142023Z 07008KT 32/12 A3018 RMK A01 T03190124  RH  030%=      5-min Rain = 0
KVP1 142024Z 07006KT 32/12 A3018 RMK A01 T03170124  RH  031%=      5-min Rain = 0
KVP1 142025Z 07004KT 31/12 A3018 RMK A01 T03140123  RH  031%=      5-min Rain = 0
KVP1 142026Z 08005KT 31/12 A3017 RMK A01 T03130123  RH  031%=      5-min Rain = 0
KVP1 142027Z 07002KT 31/12 A3017 RMK A01 T03120122  RH  031%=      5-min Rain = 0
KVP1 142028Z 10004KT 31/12 A3017 RMK A01 T03120123  RH  031%=      5-min Rain = 0
KVP1 142029Z 13007KT 32/12 A3017 RMK A01 T03150123  RH  031%=      5-min Rain = 0
KVP1 142030Z 13006KT 32/12 A3017 RMK A01 T03160123  RH  031%=      5-min Rain = 0
KVP1 142031Z 12008KT 32/12 A3017 RMK A01 T03180123  RH  030%=      5-min Rain = 0
KVP1 142032Z 14007KT 32/12 A3017 RMK A01 T03190123  RH  030%=      5-min Rain = 0
KVP1 142033Z 15006KT 32/12 A3017 RMK A01 T03200123  RH  030%=      5-min Rain = 0
KVP1 142034Z 12004KT 32/12 A3017 RMK A01 T03210122  RH  030%=      5-min Rain = 0
KVP1 142035Z 11006KT 32/12 A3017 RMK A01 T03200123  RH  030%=      5-min Rain = 0
KVP1 142036Z 08005KT 32/12 A3017 RMK A01 T03210122  RH  030%=      5-min Rain = 0
KVP1 142037Z 07003KT 32/12 A3017 RMK A01 T03220122  RH  029%=      5-min Rain = 0
KVP1 142038Z 06005KT 32/12 A3017 RMK A01 T03240122  RH  029%=      5-min Rain = 0
KVP1 142039Z 04007KT 32/12 A3017 RMK A01 T03220121  RH  029%=      5-min Rain = 0
KVP1 142040Z 02007KT 32/12 A3017 RMK A01 T03190120  RH  030%=      5-min Rain = 0
KVP1 142041Z 03005KT 32/12 A3017 RMK A01 T03190121  RH  030%=      5-min Rain = 0
KVP1 142042Z 02005KT 32/12 A3017 RMK A01 T03170121  RH  030%=      5-min Rain = 0
KVP1 142043Z 08006KT 32/12 A3017 RMK A01 T03180122  RH  030%=      5-min Rain = 0
KVP1 142044Z 06004KT 32/12 A3017 RMK A01 T03160121  RH  030%=      5-min Rain = 0
KVP1 142045Z 06003KT 31/12 A3017 RMK A01 T03130119  RH  030%=      5-min Rain = 0
KVP1 142046Z 07002KT 31/12 A3016 RMK A01 T03120119  RH  031%=      5-min Rain = 0
KVP1 142047Z 05003KT 31/12 A3016 RMK A01 T03120119  RH  031%=      5-min Rain = 0
KVP1 142048Z 04001KT 31/12 A3016 RMK A01 T03140119  RH  030%=      5-min Rain = 0
KVP1 142049Z 30000KT 32/12 A3016 RMK A01 T03150120  RH  030%=      5-min Rain = 0
KVP1 142050Z 27002KT 32/12 A3016 RMK A01 T03150120  RH  030%=      5-min Rain = 0
KVP1 142051Z 30002KT 32/12 A3016 RMK A01 T03160120  RH  030%=      5-min Rain = 0
KVP1 142052Z 31002KT 32/12 A3016 RMK A01 T03170122  RH  030%=      5-min Rain = 0
KVP1 142053Z 28002KT 32/12 A3016 RMK A01 T03180122  RH  030%=      5-min Rain = 0
KVP1 142054Z 19001KT 32/12 A3016 RMK A01 T03170121  RH  030%=      5-min Rain = 0
KVP1 142055Z 17000KT 32/12 A3016 RMK A01 T03150121  RH  030%=      5-min Rain = 0
KVP1 142056Z 08000KT 32/12 A3016 RMK A01 T03150120  RH  030%=      5-min Rain = 0
KVP1 142057Z 04006KT 32/12 A3016 RMK A01 T03170122  RH  030%=      5-min Rain = 0
KVP1 142058Z 05009KT 32/12 A3016 RMK A01 T03230124  RH  030%=      5-min Rain = 0
KVP1 142059Z 05007KT 33/12 A3016 RMK A01 T03250123  RH  029%=      5-min Rain = 0
KVP1 142100Z 06003KT 32/12 A3016 RMK A01 T03220120  RH  029%=      5-min Rain = 0
KVP1 142101Z 06003KT 32/12 A3016 RMK A01 T03190120  RH  030%=      5-min Rain = 0
KVP1 142102Z 05006KT 32/12 A3016 RMK A01 T03180121  RH  030%=      5-min Rain = 0
KVP1 142103Z 06007KT 32/12 A3016 RMK A01 T03190120  RH  030%=      5-min Rain = 0
KVP1 142104Z 07005KT 32/12 A3016 RMK A01 T03180118  RH  030%=      5-min Rain = 0
KVP1 142105Z 36002KT 32/12 A3016 RMK A01 T03170119  RH  030%=      5-min Rain = 0
KVP1 142106Z 09000KT 32/12 A3016 RMK A01 T03180119  RH  030%=      5-min Rain = 0
KVP1 142107Z 05004KT 32/12 A3016 RMK A01 T03190120  RH  030%=      5-min Rain = 0
KVP1 142108Z 04003KT 32/12 A3016 RMK A01 T03180119  RH  030%=      5-min Rain = 0
KVP1 142109Z 01003KT 32/12 A3016 RMK A01 T03170119  RH  030%=      5-min Rain = 0
KVP1 142110Z 34003KT 32/12 A3015 RMK A01 T03150118  RH  030%=      5-min Rain = 0
KVP1 142111Z 31003KT 31/12 A3015 RMK A01 T03140118  RH  030%=      5-min Rain = 0
KVP1 142112Z 31001KT 31/12 A3015 RMK A01 T03130119  RH  030%=      5-min Rain = 0
KVP1 142113Z 15001KT 32/12 A3015 RMK A01 T03160121  RH  030%=      5-min Rain = 0
KVP1 142114Z 14006KT 32/12 A3015 RMK A01 T03200122  RH  030%=      5-min Rain = 0
KVP1 142115Z 13004KT 32/12 A3015 RMK A01 T03210121  RH  030%=      5-min Rain = 0
KVP1 142116Z 09007KT 32/12 A3015 RMK A01 T03200122  RH  030%=      5-min Rain = 0
KVP1 142117Z 05009KT 32/12 A3015 RMK A01 T03230122  RH  029%=      5-min Rain = 0
KVP1 142118Z 02007KT 32/12 A3015 RMK A01 T03240121  RH  029%=      5-min Rain = 0
KVP1 142119Z 00006KT 33/12 A3015 RMK A01 T03260122  RH  029%=      5-min Rain = 0
KVP1 142120Z 36006KT 33/12 A3015 RMK A01 T03250121  RH  029%=      5-min Rain = 0
KVP1 142121Z 05008KT 33/12 A3015 RMK A01 T03260122  RH  029%=      5-min Rain = 0
KVP1 142122Z 08007KT 33/12 A3015 RMK A01 T03270120  RH  028%=      5-min Rain = 0
KVP1 142123Z 09004KT 32/12 A3015 RMK A01 T03210118  RH  029%=      5-min Rain = 0
KVP1 142124Z 10005KT 32/12 A3015 RMK A01 T03210118  RH  029%=      5-min Rain = 0
KVP1 142125Z 06009KT 32/12 A3015 RMK A01 T03210119  RH  029%=      5-min Rain = 0
KVP1 142126Z 07008KT 32/12 A3015 RMK A01 T03220119  RH  029%=      5-min Rain = 0
KVP1 142127Z 07007KT 32/12 A3015 RMK A01 T03220119  RH  029%=      5-min Rain = 0
KVP1 142128Z 07006KT 32/12 A3015 RMK A01 T03220120  RH  029%=      5-min Rain = 0
KVP1 142129Z 07009KT 33/12 A3015 RMK A01 T03280121  RH  028%=      5-min Rain = 0
KVP1 142130Z 09008KT 33/12 A3015 RMK A01 T03260119  RH  028%=      5-min Rain = 0
KVP1 142131Z 10005KT 32/12 A3015 RMK A01 T03220118  RH  029%=      5-min Rain = 0
KVP1 142132Z 10007KT 32/12 A3015 RMK A01 T03190118  RH  029%=      5-min Rain = 0
KVP1 142133Z 08004KT 32/12 A3015 RMK A01 T03210118  RH  029%=      5-min Rain = 0
KVP1 142134Z 07001KT 32/12 A3015 RMK A01 T03200117  RH  029%=      5-min Rain = 0
KVP1 142135Z 24000KT 32/12 A3015 RMK A01 T03190116  RH  029%=      5-min Rain = 0
KVP1 142136Z 24002KT 32/12 A3014 RMK A01 T03180118  RH  029%=      5-min Rain = 0
KVP1 142137Z 23004KT 32/12 A3014 RMK A01 T03210117  RH  029%=      5-min Rain = 0
KVP1 142138Z 23003KT 32/12 A3014 RMK A01 T03210118  RH  029%=      5-min Rain = 0
KVP1 142139Z 25002KT 32/12 A3014 RMK A01 T03210118  RH  029%=      5-min Rain = 0
KVP1 142140Z 23002KT 32/12 A3014 RMK A01 T03210118  RH  029%=      5-min Rain = 0
KVP1 142141Z 20001KT 32/12 A3014 RMK A01 T03220118  RH  029%=      5-min Rain = 0
KVP1 142142Z 03001KT 32/12 A3014 RMK A01 T03220118  RH  029%=      5-min Rain = 0
KVP1 142143Z 03006KT 33/12 A3014 RMK A01 T03250119  RH  028%=      5-min Rain = 0
KVP1 142144Z 02004KT 33/12 A3014 RMK A01 T03270118  RH  028%=      5-min Rain = 0
KVP1 142145Z 01002KT 33/12 A3014 RMK A01 T03250117  RH  028%=      5-min Rain = 0
KVP1 142146Z 32001KT 33/12 A3014 RMK A01 T03250117  RH  028%=      5-min Rain = 0
KVP1 142147Z 08004KT 33/12 A3014 RMK A01 T03250117  RH  028%=      5-min Rain = 0
KVP1 142148Z 05007KT 33/12 A3014 RMK A01 T03250117  RH  028%=      5-min Rain = 0
KVP1 142149Z 06007KT 33/12 A3014 RMK A01 T03270117  RH  028%=      5-min Rain = 0
KVP1 142150Z 05007KT 33/12 A3014 RMK A01 T03290117  RH  028%=      5-min Rain = 0
KVP1 142151Z 06006KT 33/12 A3014 RMK A01 T03290117  RH  027%=      5-min Rain = 0
KVP1 142152Z 05004KT 33/12 A3014 RMK A01 T03260115  RH  028%=      5-min Rain = 0
KVP1 142153Z 04004KT 33/12 A3014 RMK A01 T03250115  RH  028%=      5-min Rain = 0
KVP1 142154Z 01005KT 33/12 A3014 RMK A01 T03270117  RH  028%=      5-min Rain = 0
KVP1 142155Z 01005KT 33/12 A3013 RMK A01 T03280117  RH  028%=      5-min Rain = 0
KVP1 142156Z 36007KT 33/12 A3013 RMK A01 T03270117  RH  028%=      5-min Rain = 0
KVP1 142157Z 01004G9KT 33/12 A3013 RMK A01 T03270116  RH  028%=      5-min Rain = 0
KVP1 142158Z 06006KT 33/12 A3013 RMK A01 T03260116  RH  028%=      5-min Rain = 0
KVP1 142159Z 06005KT 33/11 A3013 RMK A01 T03270114  RH  027%=      5-min Rain = 0
KVP1 142200Z 07005KT 33/11 A3013 RMK A01 T03250114  RH  028%=      5-min Rain = 0
KVP1 142201Z 06004KT 33/11 A3013 RMK A01 T03250114  RH  028%=      5-min Rain = 0
KVP1 142202Z 04005KT 33/12 A3013 RMK A01 T03250115  RH  028%=      5-min Rain = 0
KVP1 142203Z 02007KT 33/11 A3013 RMK A01 T03250114  RH  028%=      5-min Rain = 0
KVP1 142204Z 02005KT 32/11 A3013 RMK A01 T03240111  RH  027%=      5-min Rain = 0
KVP1 142205Z 00003KT 32/11 A3013 RMK A01 T03220112  RH  028%=      5-min Rain = 0
KVP1 142206Z 02003KT 32/11 A3013 RMK A01 T03230113  RH  028%=      5-min Rain = 0
KVP1 142207Z 03002KT 32/11 A3013 RMK A01 T03240113  RH  028%=      5-min Rain = 0
KVP1 142208Z 06001KT 32/11 A3013 RMK A01 T03240113  RH  027%=      5-min Rain = 0
KVP1 142209Z 15000KT 33/11 A3013 RMK A01 T03250112  RH  027%=      5-min Rain = 0
KVP1 142210Z 19000KT 33/11 A3013 RMK A01 T03270113  RH  027%=      5-min Rain = 0
KVP1 142211Z 00000KT 33/11 A3013 RMK A01 T03290114  RH  027%=      5-min Rain = 0
KVP1 142212Z 25000KT 33/11 A3013 RMK A01 T03310113  RH  027%=      5-min Rain = 0
KVP1 142213Z 25002KT 33/11 A3013 RMK A01 T03320114  RH  026%=      5-min Rain = 0
KVP1 142214Z 20000KT 33/11 A3013 RMK A01 T03340114  RH  026%=      5-min Rain = 0
KVP1 142215Z 08004KT 33/11 A3013 RMK A01 T03330113  RH  026%=      5-min Rain = 0
KVP1 142216Z 09004KT 33/11 A3013 RMK A01 T03310114  RH  027%=      5-min Rain = 0
KVP1 142217Z 10004KT 33/12 A3013 RMK A01 T03320116  RH  027%=      5-min Rain = 0
KVP1 142218Z 11004KT 33/12 A3013 RMK A01 T03290115  RH  027%=      5-min Rain = 0
KVP1 142219Z 06005KT 33/12 A3013 RMK A01 T03270115  RH  027%=      5-min Rain = 0
KVP1 142220Z 04004KT 33/12 A3013 RMK A01 T03270116  RH  027%=      5-min Rain = 0
KVP1 142221Z 03005KT 33/11 A3013 RMK A01 T03270113  RH  027%=      5-min Rain = 0
KVP1 142222Z 04003KT 33/12 A3013 RMK A01 T03310115  RH  027%=      5-min Rain = 0
KVP1 142223Z 05003KT 33/12 A3013 RMK A01 T03310115  RH  027%=      5-min Rain = 0
KVP1 142224Z 09002KT 33/12 A3013 RMK A01 T03310115  RH  027%=      5-min Rain = 0
KVP1 142225Z 11001KT 33/11 A3013 RMK A01 T03300114  RH  027%=      5-min Rain = 0
KVP1 142226Z 08001KT 33/11 A3013 RMK A01 T03280114  RH  027%=      5-min Rain = 0
KVP1 142227Z 12003KT 33/12 A3013 RMK A01 T03310115  RH  027%=      5-min Rain = 0
KVP1 142228Z 09004KT 33/12 A3013 RMK A01 T03340115  RH  026%=      5-min Rain = 0
KVP1 142229Z 09006KT 34/12 A3013 RMK A01 T03350115  RH  026%=      5-min Rain = 0
KVP1 142230Z 10005KT 33/11 A3013 RMK A01 T03340114  RH  026%=      5-min Rain = 0
KVP1 142231Z 09003KT 33/11 A3013 RMK A01 T03310114  RH  027%=      5-min Rain = 0
KVP1 142232Z 06002KT 33/11 A3013 RMK A01 T03290114  RH  027%=      5-min Rain = 0
KVP1 142233Z 01003G8KT 33/11 A3013 RMK A01 T03290114  RH  027%=      5-min Rain = 0
KVP1 142234Z 00006KT 33/11 A3013 RMK A01 T03280113  RH  027%=      5-min Rain = 0
KVP1 142235Z 33003KT 33/11 A3013 RMK A01 T03270113  RH  027%=      5-min Rain = 0
KVP1 142236Z 31002KT 33/11 A3013 RMK A01 T03270114  RH  027%=      5-min Rain = 0
KVP1 142237Z 34004KT 33/11 A3013 RMK A01 T03290114  RH  027%=      5-min Rain = 0
KVP1 142238Z 35007KT 33/11 A3013 RMK A01 T03300114  RH  027%=      5-min Rain = 0
KVP1 142239Z 35006KT 33/11 A3013 RMK A01 T03290114  RH  027%=      5-min Rain = 0
KVP1 142240Z 35005KT 33/11 A3013 RMK A01 T03280114  RH  027%=      5-min Rain = 0
KVP1 142241Z 34006KT 33/11 A3013 RMK A01 T03300113  RH  027%=      5-min Rain = 0
KVP1 142242Z 34006KT 33/11 A3013 RMK A01 T03310114  RH  027%=      5-min Rain = 0
KVP1 142243Z 35007KT 33/11 A3013 RMK A01 T03320114  RH  026%=      5-min Rain = 0
KVP1 142244Z 36004KT 33/11 A3013 RMK A01 T03300114  RH  027%=      5-min Rain = 0
KVP1 142245Z 04005KT 33/11 A3012 RMK A01 T03280113  RH  027%=      5-min Rain = 0
KVP1 142246Z 07007KT 33/11 A3012 RMK A01 T03280114  RH  027%=      5-min Rain = 0
KVP1 142247Z 06007KT 33/12 A3012 RMK A01 T03310115  RH  027%=      5-min Rain = 0
KVP1 142248Z 05009KT 33/12 A3012 RMK A01 T03330115  RH  026%=      5-min Rain = 0
KVP1 142249Z 05006KT 33/11 A3012 RMK A01 T03300114  RH  027%=      5-min Rain = 0
KVP1 142250Z 05005KT 33/11 A3012 RMK A01 T03290114  RH  027%=      5-min Rain = 0
KVP1 142251Z 08006KT 33/11 A3013 RMK A01 T03290114  RH  027%=      5-min Rain = 0
KVP1 142252Z 09006KT 33/11 A3013 RMK A01 T03280113  RH  027%=      5-min Rain = 0
KVP1 142253Z 06007KT 33/11 A3013 RMK A01 T03250113  RH  027%=      5-min Rain = 0
KVP1 142254Z 06004KT 33/11 A3013 RMK A01 T03250112  RH  027%=      5-min Rain = 0
KVP1 142255Z 11003KT 32/11 A3013 RMK A01 T03230111  RH  027%=      5-min Rain = 0
KVP1 142256Z 16003KT 32/11 A3013 RMK A01 T03230112  RH  027%=      5-min Rain = 0
KVP1 142257Z 19003KT 32/11 A3012 RMK A01 T03230112  RH  027%=      5-min Rain = 0
KVP1 142258Z 17004KT 33/11 A3012 RMK A01 T03250113  RH  027%=      5-min Rain = 0
KVP1 142259Z 17001KT 33/11 A3012 RMK A01 T03250113  RH  027%=      5-min Rain = 0
KVP1 142300Z 17000KT 33/11 A3012 RMK A01 T03250113  RH  027%=      5-min Rain = 0
KVP1 142301Z 01001KT 33/11 A3012 RMK A01 T03270114  RH  027%=      5-min Rain = 0
KVP1 142302Z 35003KT 33/12 A3012 RMK A01 T03290115  RH  027%=      5-min Rain = 0
KVP1 142303Z 35003KT 33/11 A3012 RMK A01 T03300114  RH  027%=      5-min Rain = 0
KVP1 142304Z 33002KT 33/11 A3012 RMK A01 T03290114  RH  027%=      5-min Rain = 0
KVP1 142305Z 30000KT 33/11 A3012 RMK A01 T03280114  RH  027%=      5-min Rain = 0
KVP1 142306Z 23000KT 33/11 A3012 RMK A01 T03290114  RH  027%=      5-min Rain = 0
KVP1 142307Z 02002KT 33/12 A3012 RMK A01 T03310115  RH  027%=      5-min Rain = 0
KVP1 142308Z 05002KT 33/12 A3012 RMK A01 T03320115  RH  027%=      5-min Rain = 0
KVP1 142309Z 06000KT 33/11 A3012 RMK A01 T03330114  RH  026%=      5-min Rain = 0
KVP1 142310Z 10001KT 33/12 A3012 RMK A01 T03330115  RH  026%=      5-min Rain = 0
KVP1 142311Z 09005KT 33/11 A3012 RMK A01 T03330114  RH  026%=      5-min Rain = 0
KVP1 142312Z 08004KT 33/11 A3012 RMK A01 T03320114  RH  027%=      5-min Rain = 0
KVP1 142313Z 36004KT 33/11 A3012 RMK A01 T03300114  RH  027%=      5-min Rain = 0
KVP1 142314Z 36004KT 33/11 A3012 RMK A01 T03290114  RH  027%=      5-min Rain = 0
KVP1 142315Z 03003KT 33/11 A3012 RMK A01 T03290114  RH  027%=      5-min Rain = 0
KVP1 142316Z 01005KT 33/11 A3012 RMK A01 T03290113  RH  027%=      5-min Rain = 0
KVP1 142317Z 34005KT 33/11 A3012 RMK A01 T03290113  RH  027%=      5-min Rain = 0
KVP1 142318Z 34005KT 33/11 A3012 RMK A01 T03300114  RH  027%=      5-min Rain = 0
KVP1 142319Z 35003KT 33/11 A3012 RMK A01 T03300114  RH  027%=      5-min Rain = 0
KVP1 142320Z 35003KT 33/11 A3012 RMK A01 T03290113  RH  027%=      5-min Rain = 0
KVP1 142321Z 34004KT 33/11 A3012 RMK A01 T03290114  RH  027%=      5-min Rain = 0
KVP1 142322Z 35005KT 33/11 A3012 RMK A01 T03290114  RH  027%=      5-min Rain = 0
KVP1 142323Z 02005KT 33/11 A3012 RMK A01 T03270114  RH  027%=      5-min Rain = 0
KVP1 142324Z 03005KT 33/12 A3012 RMK A01 T03270115  RH  027%=      5-min Rain = 0
KVP1 142325Z 07004KT 33/11 A3012 RMK A01 T03270114  RH  027%=      5-min Rain = 0
KVP1 142326Z 10005KT 33/11 A3012 RMK A01 T03270113  RH  027%=      5-min Rain = 0
KVP1 142327Z 08006KT 33/12 A3012 RMK A01 T03300115  RH  027%=      5-min Rain = 0
KVP1 142328Z 08006KT 33/12 A3012 RMK A01 T03320116  RH  027%=      5-min Rain = 0
KVP1 142329Z 08008KT 33/12 A3012 RMK A01 T03340116  RH  026%=      5-min Rain = 0
KVP1 142330Z 09007KT 33/11 A3012 RMK A01 T03310114  RH  027%=      5-min Rain = 0
KVP1 142331Z 08006KT 33/11 A3012 RMK A01 T03280114  RH  027%=      5-min Rain = 0
KVP1 142332Z 07006KT 33/12 A3012 RMK A01 T03280115  RH  027%=      5-min Rain = 0
KVP1 142333Z 06006KT 33/12 A3012 RMK A01 T03290115  RH  027%=      5-min Rain = 0
KVP1 142334Z 08006KT 33/12 A3012 RMK A01 T03280115  RH  027%=      5-min Rain = 0
KVP1 142335Z 06007KT 33/12 A3012 RMK A01 T03270116  RH  028%=      5-min Rain = 0
KVP1 142336Z 05005KT 33/12 A3012 RMK A01 T03260116  RH  028%=      5-min Rain = 0
KVP1 142337Z 06003KT 32/12 A3012 RMK A01 T03240116  RH  028%=      5-min Rain = 0
KVP1 142338Z 05003KT 32/12 A3012 RMK A01 T03240116  RH  028%=      5-min Rain = 0
KVP1 142339Z 03003KT 32/12 A3012 RMK A01 T03240116  RH  028%=      5-min Rain = 0
KVP1 142340Z 03003KT 32/12 A3012 RMK A01 T03240117  RH  028%=      5-min Rain = 0
KVP1 142341Z 03002KT 32/12 A3012 RMK A01 T03240117  RH  028%=      5-min Rain = 0
KVP1 142342Z 07002KT 33/12 A3012 RMK A01 T03250117  RH  028%=      5-min Rain = 0
KVP1 142343Z 07004KT 33/12 A3012 RMK A01 T03270117  RH  028%=      5-min Rain = 0
KVP1 142344Z 07003KT 33/12 A3012 RMK A01 T03270116  RH  028%=      5-min Rain = 0
KVP1 142345Z 05002KT 33/12 A3012 RMK A01 T03260116  RH  028%=      5-min Rain = 0
KVP1 142346Z 07002KT 33/12 A3012 RMK A01 T03250116  RH  028%=      5-min Rain = 0
KVP1 142347Z 05003KT 33/12 A3012 RMK A01 T03250116  RH  028%=      5-min Rain = 0
KVP1 142348Z 04004KT 33/12 A3012 RMK A01 T03270117  RH  028%=      5-min Rain = 0
KVP1 142349Z 05004KT 33/12 A3012 RMK A01 T03260117  RH  028%=      5-min Rain = 0
KVP1 142350Z 10004KT 32/12 A3012 RMK A01 T03240116  RH  028%=      5-min Rain = 0
KVP1 142351Z 11005KT 32/12 A3012 RMK A01 T03240116  RH  028%=      5-min Rain = 0
KVP1 142352Z 09006KT 32/12 A3012 RMK A01 T03240117  RH  028%=      5-min Rain = 0
KVP1 142353Z 07010KT 33/12 A3012 RMK A01 T03250117  RH  028%=      5-min Rain = 0
KVP1 142354Z 07010KT 33/12 A3012 RMK A01 T03250117  RH  028%=      5-min Rain = 0
KVP1 142355Z 07010KT 33/12 A3012 RMK A01 T03250117  RH  028%=      5-min Rain = 0
KVP1 142356Z 07009KT 33/12 A3012 RMK A01 T03250118  RH  028%=      5-min Rain = 0
KVP1 142357Z 07007KT 33/12 A3012 RMK A01 T03250117  RH  028%=      5-min Rain = 0
KVP1 142358Z 09005KT 32/12 A3012 RMK A01 T03230117  RH  028%=      5-min Rain = 0
KVP1 142359Z 09008KT 32/12 A3012 RMK A01 T03230116  RH  028%=      5-min Rain = 0
KVP1 150000Z 12008KT 32/12 A3012 RMK A01 T03230117  RH  028%=      5-min Rain = 0
KVP1 150001Z 13008KT 32/12 A3012 RMK A01 T03240116  RH  028%=      5-min Rain = 0
KVP1 150002Z 13007KT 32/12 A3012 RMK A01 T03240116  RH  028%=      5-min Rain = 0
KVP1 150003Z 13008KT 33/12 A3012 RMK A01 T03250117  RH  028%=      5-min Rain = 0
KVP1 150004Z 13008KT 32/12 A3012 RMK A01 T03240117  RH  028%=      5-min Rain = 0
KVP1 150005Z 14004KT 32/12 A3012 RMK A01 T03240117  RH  028%=      5-min Rain = 0
KVP1 150006Z 12004KT 32/12 A3012 RMK A01 T03230116  RH  028%=      5-min Rain = 0
KVP1 150007Z 13005KT 32/12 A3012 RMK A01 T03240117  RH  028%=      5-min Rain = 0
KVP1 150008Z 13005KT 32/12 A3012 RMK A01 T03240117  RH  028%=      5-min Rain = 0
KVP1 150009Z 13004KT 32/12 A3012 RMK A01 T03240117  RH  028%=      5-min Rain = 0
KVP1 150010Z 13005KT 32/12 A3012 RMK A01 T03230117  RH  028%=      5-min Rain = 0
KVP1 150011Z 14005KT 32/12 A3012 RMK A01 T03230117  RH  028%=      5-min Rain = 0
KVP1 150012Z 15004KT 32/12 A3012 RMK A01 T03220117  RH  028%=      5-min Rain = 0
KVP1 150013Z 10005KT 32/12 A3012 RMK A01 T03220117  RH  029%=      5-min Rain = 0
KVP1 150014Z 09006KT 32/12 A3012 RMK A01 T03220116  RH  028%=      5-min Rain = 0
KVP1 150015Z 09005KT 32/12 A3012 RMK A01 T03220116  RH  028%=      5-min Rain = 0
KVP1 150016Z 10003KT 32/12 A3012 RMK A01 T03210116  RH  029%=      5-min Rain = 0
KVP1 150017Z 09004KT 32/12 A3012 RMK A01 T03200116  RH  029%=      5-min Rain = 0
KVP1 150018Z 07004KT 32/12 A3012 RMK A01 T03190116  RH  029%=      5-min Rain = 0
KVP1 150019Z 07004KT 32/12 A3012 RMK A01 T03200116  RH  029%=      5-min Rain = 0
KVP1 150020Z 06006KT 32/12 A3012 RMK A01 T03200116  RH  029%=      5-min Rain = 0
KVP1 150021Z 08007KT 32/12 A3012 RMK A01 T03200116  RH  029%=      5-min Rain = 0
KVP1 150022Z 10005KT 32/12 A3012 RMK A01 T03200117  RH  029%=      5-min Rain = 0
KVP1 150023Z 09006KT 32/12 A3012 RMK A01 T03200118  RH  029%=      5-min Rain = 0
KVP1 150024Z 09007KT 32/12 A3012 RMK A01 T03200117  RH  029%=      5-min Rain = 0
KVP1 150025Z 08005KT 32/12 A3012 RMK A01 T03190116  RH  029%=      5-min Rain = 0
KVP1 150026Z 09005KT 32/12 A3012 RMK A01 T03180117  RH  029%=      5-min Rain = 0
KVP1 150027Z 09005KT 32/12 A3012 RMK A01 T03170116  RH  029%=      5-min Rain = 0
KVP1 150028Z 10005KT 32/12 A3012 RMK A01 T03170116  RH  029%=      5-min Rain = 0
KVP1 150029Z 10005KT 32/12 A3012 RMK A01 T03170116  RH  029%=      5-min Rain = 0
KVP1 150030Z 11005KT 32/12 A3012 RMK A01 T03160116  RH  029%=      5-min Rain = 0
KVP1 150031Z 11006KT 32/12 A3012 RMK A01 T03160117  RH  030%=      5-min Rain = 0
KVP1 150032Z 10006KT 32/12 A3012 RMK A01 T03150117  RH  030%=      5-min Rain = 0
KVP1 150033Z 10006KT 32/12 A3012 RMK A01 T03150119  RH  030%=      5-min Rain = 0
KVP1 150034Z 07006KT 31/12 A3012 RMK A01 T03140118  RH  030%=      5-min Rain = 0
KVP1 150035Z 07005KT 31/12 A3012 RMK A01 T03130118  RH  030%=      5-min Rain = 0
KVP1 150036Z 08005KT 31/12 A3012 RMK A01 T03130118  RH  030%=      5-min Rain = 0
KVP1 150037Z 09005KT 31/12 A3012 RMK A01 T03130117  RH  030%=      5-min Rain = 0
KVP1 150038Z 10006KT 31/12 A3012 RMK A01 T03140118  RH  030%=      5-min Rain = 0
KVP1 150039Z 10005KT 32/12 A3012 RMK A01 T03150118  RH  030%=      5-min Rain = 0
KVP1 150040Z 10005KT 32/12 A3012 RMK A01 T03150119  RH  030%=      5-min Rain = 0
KVP1 150041Z 10005KT 32/12 A3012 RMK A01 T03160119  RH  030%=      5-min Rain = 0
KVP1 150042Z 10007KT 32/12 A3012 RMK A01 T03160119  RH  030%=      5-min Rain = 0
KVP1 150043Z 10006KT 32/12 A3012 RMK A01 T03150119  RH  030%=      5-min Rain = 0
KVP1 150044Z 11006KT 32/12 A3012 RMK A01 T03150119  RH  030%=      5-min Rain = 0
KVP1 150045Z 11006KT 32/12 A3012 RMK A01 T03150119  RH  030%=      5-min Rain = 0
KVP1 150046Z 11007KT 32/12 A3012 RMK A01 T03150119  RH  030%=      5-min Rain = 0
KVP1 150047Z 11006KT 32/12 A3012 RMK A01 T03150118  RH  030%=      5-min Rain = 0
KVP1 150048Z 10006KT 32/12 A3012 RMK A01 T03150117  RH  030%=      5-min Rain = 0
KVP1 150049Z 10006KT 32/12 A3012 RMK A01 T03150118  RH  030%=      5-min Rain = 0
KVP1 150050Z 11006KT 32/12 A3012 RMK A01 T03150117  RH  030%=      5-min Rain = 0
KVP1 150051Z 10006KT 32/12 A3012 RMK A01 T03150118  RH  030%=      5-min Rain = 0
KVP1 150052Z 10006KT 31/12 A3012 RMK A01 T03140118  RH  030%=      5-min Rain = 0
KVP1 150053Z 10006KT 31/12 A3012 RMK A01 T03140118  RH  030%=      5-min Rain = 0
KVP1 150054Z 10005KT 31/12 A3012 RMK A01 T03140117  RH  030%=      5-min Rain = 0
KVP1 150055Z 10006KT 31/12 A3012 RMK A01 T03140117  RH  030%=      5-min Rain = 0
KVP1 150056Z 10006KT 31/12 A3012 RMK A01 T03130118  RH  030%=      5-min Rain = 0
KVP1 150057Z 11006KT 31/12 A3012 RMK A01 T03130118  RH  030%=      5-min Rain = 0
KVP1 150058Z 10006KT 31/12 A3012 RMK A01 T03120119  RH  031%=      5-min Rain = 0
KVP1 150059Z 10005KT 31/12 A3012 RMK A01 T03110119  RH  031%=      5-min Rain = 0
KVP1 150100Z 10007KT 31/12 A3012 RMK A01 T03100120  RH  031%=      5-min Rain = 0
KVP1 150101Z 10008KT 31/12 A3012 RMK A01 T03090120  RH  031%=      5-min Rain = 0
KVP1 150102Z 10007KT 31/12 A3012 RMK A01 T03090119  RH  031%=      5-min Rain = 0
KVP1 150103Z 09008KT 31/12 A3012 RMK A01 T03080119  RH  031%=      5-min Rain = 0
KVP1 150104Z 09008KT 31/12 A3012 RMK A01 T03080119  RH  031%=      5-min Rain = 0
KVP1 150105Z 09007KT 31/12 A3013 RMK A01 T03070119  RH  031%=      5-min Rain = 0
KVP1 150106Z 10007KT 31/12 A3013 RMK A01 T03070119  RH  031%=      5-min Rain = 0
KVP1 150107Z 10006KT 31/12 A3013 RMK A01 T03060119  RH  032%=      5-min Rain = 0
KVP1 150108Z 10006KT 31/12 A3013 RMK A01 T03050119  RH  032%=      5-min Rain = 0
KVP1 150109Z 10006KT 30/12 A3013 RMK A01 T03040119  RH  032%=      5-min Rain = 0
KVP1 150110Z 09007KT 30/12 A3013 RMK A01 T03030119  RH  032%=      5-min Rain = 0
KVP1 150111Z 09006KT 30/12 A3013 RMK A01 T03020119  RH  032%=      5-min Rain = 0
KVP1 150112Z 09007KT 30/12 A3013 RMK A01 T03020120  RH  033%=      5-min Rain = 0
KVP1 150113Z 09006KT 30/12 A3013 RMK A01 T03010120  RH  033%=      5-min Rain = 0
KVP1 150114Z 09007KT 30/12 A3013 RMK A01 T03000120  RH  033%=      5-min Rain = 0
KVP1 150115Z 09008KT 30/12 A3013 RMK A01 T03000121  RH  033%=      5-min Rain = 0
KVP1 150116Z 09008KT 30/12 A3013 RMK A01 T02990121  RH  033%=      5-min Rain = 0
KVP1 150117Z 09008KT 30/12 A3013 RMK A01 T03000122  RH  034%=      5-min Rain = 0
KVP1 150118Z 09010KT 30/12 A3013 RMK A01 T02990122  RH  034%=      5-min Rain = 0
KVP1 150119Z 08010KT 30/12 A3013 RMK A01 T02990122  RH  034%=      5-min Rain = 0
KVP1 150120Z 08010KT 30/12 A3013 RMK A01 T03000122  RH  034%=      5-min Rain = 0
KVP1 150121Z 09008KT 30/12 A3013 RMK A01 T03000122  RH  033%=      5-min Rain = 0
KVP1 150122Z 09009KT 30/12 A3013 RMK A01 T02990121  RH  033%=      5-min Rain = 0
KVP1 150123Z 09008KT 30/12 A3013 RMK A01 T02990121  RH  033%=      5-min Rain = 0
KVP1 150124Z 09009KT 30/12 A3013 RMK A01 T02980121  RH  033%=      5-min Rain = 0
KVP1 150125Z 09008KT 30/12 A3013 RMK A01 T02980120  RH  034%=      5-min Rain = 0
KVP1 150126Z 09007KT 30/12 A3013 RMK A01 T02970120  RH  034%=      5-min Rain = 0
KVP1 150127Z 09008KT 30/12 A3013 RMK A01 T02960120  RH  034%=      5-min Rain = 0
KVP1 150128Z 09007KT 30/12 A3013 RMK A01 T02950120  RH  034%=      5-min Rain = 0
KVP1 150129Z 09008KT 29/12 A3013 RMK A01 T02940120  RH  034%=      5-min Rain = 0
KVP1 150130Z 09008KT 29/12 A3013 RMK A01 T02930121  RH  034%=      5-min Rain = 0
KVP1 150131Z 09008KT 29/12 A3014 RMK A01 T02930121  RH  035%=      5-min Rain = 0
KVP1 150132Z 09008KT 29/12 A3014 RMK A01 T02920122  RH  035%=      5-min Rain = 0
KVP1 150133Z 09008KT 29/12 A3014 RMK A01 T02920122  RH  035%=      5-min Rain = 0
KVP1 150134Z 09009KT 29/12 A3014 RMK A01 T02910122  RH  035%=      5-min Rain = 0
KVP1 150135Z 09009KT 29/12 A3014 RMK A01 T02910123  RH  035%=      5-min Rain = 0
KVP1 150136Z 09007KT 29/12 A3014 RMK A01 T02910123  RH  035%=      5-min Rain = 0
KVP1 150137Z 09008KT 29/12 A3014 RMK A01 T02900122  RH  035%=      5-min Rain = 0
KVP1 150138Z 09008KT 29/12 A3014 RMK A01 T02900123  RH  036%=      5-min Rain = 0
KVP1 150139Z 09008KT 29/12 A3014 RMK A01 T02900123  RH  036%=      5-min Rain = 0
KVP1 150140Z 09008KT 29/12 A3014 RMK A01 T02890123  RH  036%=      5-min Rain = 0
KVP1 150141Z 09008KT 29/12 A3014 RMK A01 T02880123  RH  036%=      5-min Rain = 0
KVP1 150142Z 09008KT 29/12 A3014 RMK A01 T02870123  RH  036%=      5-min Rain = 0
KVP1 150143Z 09008KT 29/12 A3014 RMK A01 T02870123  RH  036%=      5-min Rain = 0
KVP1 150144Z 09007KT 29/12 A3014 RMK A01 T02860123  RH  036%=      5-min Rain = 0
KVP1 150145Z 09008KT 29/12 A3014 RMK A01 T02850122  RH  036%=      5-min Rain = 0
KVP1 150146Z 09007KT 29/12 A3014 RMK A01 T02850122  RH  037%=      5-min Rain = 0
KVP1 150147Z 09007KT 29/12 A3014 RMK A01 T02850122  RH  037%=      5-min Rain = 0
KVP1 150148Z 09007KT 28/12 A3014 RMK A01 T02840122  RH  037%=      5-min Rain = 0
KVP1 150149Z 10006KT 28/12 A3014 RMK A01 T02830122  RH  037%=      5-min Rain = 0
KVP1 150150Z 10006KT 28/12 A3014 RMK A01 T02820122  RH  037%=      5-min Rain = 0
KVP1 150151Z 10007KT 28/12 A3014 RMK A01 T02810122  RH  037%=      5-min Rain = 0
KVP1 150152Z 10007KT 28/12 A3014 RMK A01 T02790122  RH  038%=      5-min Rain = 0
KVP1 150153Z 09007KT 28/12 A3014 RMK A01 T02780122  RH  038%=      5-min Rain = 0
KVP1 150154Z 09008KT 28/12 A3014 RMK A01 T02770122  RH  038%=      5-min Rain = 0
KVP1 150155Z 09007KT 28/12 A3015 RMK A01 T02770122  RH  038%=      5-min Rain = 0
KVP1 150156Z 10008KT 28/12 A3015 RMK A01 T02760122  RH  038%=      5-min Rain = 0
KVP1 150157Z 09007KT 28/12 A3015 RMK A01 T02760122  RH  038%=      5-min Rain = 0
KVP1 150158Z 10008KT 28/12 A3015 RMK A01 T02750122  RH  039%=      5-min Rain = 0
KVP1 150159Z 09008KT 28/12 A3015 RMK A01 T02750122  RH  039%=      5-min Rain = 0
KVP1 150200Z 09008KT 27/12 A3015 RMK A01 T02740122  RH  039%=      5-min Rain = 0
KVP1 150201Z 09008KT 27/12 A3015 RMK A01 T02740122  RH  039%=      5-min Rain = 0
KVP1 150202Z 09008KT 27/12 A3015 RMK A01 T02730122  RH  039%=      5-min Rain = 0
KVP1 150203Z 09008KT 27/12 A3015 RMK A01 T02730122  RH  039%=      5-min Rain = 0
KVP1 150204Z 09008KT 27/12 A3015 RMK A01 T02730122  RH  039%=      5-min Rain = 0
KVP1 150205Z 09008KT 27/12 A3015 RMK A01 T02730123  RH  039%=      5-min Rain = 0
KVP1 150206Z 09008KT 27/12 A3015 RMK A01 T02730123  RH  039%=      5-min Rain = 0
KVP1 150207Z 09008KT 27/12 A3015 RMK A01 T02730123  RH  039%=      5-min Rain = 0
KVP1 150208Z 10008KT 27/12 A3015 RMK A01 T02730122  RH  039%=      5-min Rain = 0
KVP1 150209Z 09008KT 27/12 A3015 RMK A01 T02730123  RH  039%=      5-min Rain = 0
KVP1 150210Z 09008KT 27/12 A3015 RMK A01 T02720123  RH  039%=      5-min Rain = 0
KVP1 150211Z 10008KT 27/12 A3015 RMK A01 T02720123  RH  040%=      5-min Rain = 0
KVP1 150212Z 10007KT 27/12 A3015 RMK A01 T02710123  RH  040%=      5-min Rain = 0
KVP1 150213Z 10008KT 27/12 A3015 RMK A01 T02690124  RH  041%=      5-min Rain = 0
KVP1 150214Z 10008KT 27/12 A3015 RMK A01 T02680124  RH  041%=      5-min Rain = 0
KVP1 150215Z 10007KT 27/12 A3015 RMK A01 T02660124  RH  041%=      5-min Rain = 0
KVP1 150216Z 10008KT 27/12 A3015 RMK A01 T02650124  RH  042%=      5-min Rain = 0
KVP1 150217Z 10007KT 26/12 A3015 RMK A01 T02640124  RH  042%=      5-min Rain = 0
KVP1 150218Z 10008KT 26/12 A3015 RMK A01 T02630124  RH  042%=      5-min Rain = 0
KVP1 150219Z 10008KT 26/13 A3015 RMK A01 T02630125  RH  042%=      5-min Rain = 0
KVP1 150220Z 10008KT 26/13 A3015 RMK A01 T02630126  RH  043%=      5-min Rain = 0
KVP1 150221Z 10008KT 26/13 A3015 RMK A01 T02630127  RH  043%=      5-min Rain = 0
KVP1 150222Z 10008KT 26/13 A3015 RMK A01 T02630127  RH  043%=      5-min Rain = 0
KVP1 150223Z 10008KT 26/13 A3015 RMK A01 T02630128  RH  043%=      5-min Rain = 0
KVP1 150224Z 10008KT 26/13 A3015 RMK A01 T02630128  RH  043%=      5-min Rain = 0
KVP1 150225Z 11007KT 26/13 A3015 RMK A01 T02620129  RH  043%=      5-min Rain = 0
KVP1 150226Z 11007KT 26/13 A3015 RMK A01 T02620129  RH  044%=      5-min Rain = 0
KVP1 150227Z 11007KT 26/13 A3015 RMK A01 T02610128  RH  044%=      5-min Rain = 0
KVP1 150228Z 11008KT 26/13 A3015 RMK A01 T02600129  RH  044%=      5-min Rain = 0
KVP1 150229Z 11007KT 26/13 A3015 RMK A01 T02590129  RH  044%=      5-min Rain = 0
KVP1 150230Z 11007KT 26/13 A3015 RMK A01 T02590129  RH  044%=      5-min Rain = 0
KVP1 150231Z 11008KT 26/13 A3015 RMK A01 T02580129  RH  045%=      5-min Rain = 0
KVP1 150232Z 11007KT 26/13 A3015 RMK A01 T02570129  RH  045%=      5-min Rain = 0
KVP1 150233Z 11006KT 26/13 A3015 RMK A01 T02570129  RH  045%=      5-min Rain = 0
KVP1 150234Z 11007KT 26/13 A3016 RMK A01 T02570129  RH  045%=      5-min Rain = 0
KVP1 150235Z 11007KT 26/13 A3016 RMK A01 T02570129  RH  045%=      5-min Rain = 0
KVP1 150236Z 10007KT 26/13 A3016 RMK A01 T02570129  RH  045%=      5-min Rain = 0
KVP1 150237Z 10007KT 26/13 A3016 RMK A01 T02560129  RH  045%=      5-min Rain = 0
KVP1 150238Z 10007KT 26/13 A3016 RMK A01 T02560129  RH  045%=      5-min Rain = 0
KVP1 150239Z 11007KT 26/13 A3016 RMK A01 T02560129  RH  045%=      5-min Rain = 0
KVP1 150240Z 11007KT 26/13 A3016 RMK A01 T02560129  RH  045%=      5-min Rain = 0
KVP1 150241Z 11007KT 26/13 A3016 RMK A01 T02560129  RH  045%=      5-min Rain = 0
KVP1 150242Z 11007KT 26/13 A3016 RMK A01 T02560129  RH  045%=      5-min Rain = 0
KVP1 150243Z 11007KT 26/13 A3016 RMK A01 T02560129  RH  045%=      5-min Rain = 0
KVP1 150244Z 11007KT 26/13 A3016 RMK A01 T02560129  RH  045%=      5-min Rain = 0
KVP1 150245Z 11008KT 26/13 A3016 RMK A01 T02560129  RH  045%=      5-min Rain = 0
KVP1 150246Z 11007KT 26/13 A3016 RMK A01 T02560130  RH  046%=      5-min Rain = 0
KVP1 150247Z 11007KT 26/13 A3016 RMK A01 T02560130  RH  046%=      5-min Rain = 0
KVP1 150248Z 11007KT 26/13 A3016 RMK A01 T02550130  RH  046%=      5-min Rain = 0
KVP1 150249Z 11007KT 25/13 A3016 RMK A01 T02540130  RH  046%=      5-min Rain = 0
KVP1 150250Z 11007KT 25/13 A3016 RMK A01 T02540130  RH  046%=      5-min Rain = 0
KVP1 150251Z 11007KT 25/13 A3016 RMK A01 T02540129  RH  046%=      5-min Rain = 0
KVP1 150252Z 11007KT 25/13 A3016 RMK A01 T02530129  RH  046%=      5-min Rain = 0
KVP1 150253Z 11008KT 25/13 A3016 RMK A01 T02520130  RH  046%=      5-min Rain = 0
KVP1 150254Z 11008KT 25/13 A3016 RMK A01 T02520130  RH  047%=      5-min Rain = 0
KVP1 150255Z 11008KT 25/13 A3017 RMK A01 T02510130  RH  047%=      5-min Rain = 0
KVP1 150256Z 11008KT 25/13 A3017 RMK A01 T02510130  RH  047%=      5-min Rain = 0
KVP1 150257Z 11008KT 25/13 A3017 RMK A01 T02510130  RH  047%=      5-min Rain = 0
KVP1 150258Z 11008KT 25/13 A3017 RMK A01 T02510130  RH  047%=      5-min Rain = 0
KVP1 150259Z 11008KT 25/13 A3017 RMK A01 T02510130  RH  047%=      5-min Rain = 0
KVP1 150300Z 11008KT 25/13 A3017 RMK A01 T02510130  RH  047%=      5-min Rain = 0
KVP1 150301Z 11008KT 25/13 A3017 RMK A01 T02510130  RH  047%=      5-min Rain = 0
KVP1 150302Z 11007KT 25/13 A3017 RMK A01 T02510130  RH  047%=      5-min Rain = 0
KVP1 150303Z 11008KT 25/13 A3017 RMK A01 T02520130  RH  047%=      5-min Rain = 0
KVP1 150304Z 11008KT 25/13 A3017 RMK A01 T02510130  RH  047%=      5-min Rain = 0
KVP1 150305Z 10008KT 25/13 A3017 RMK A01 T02510129  RH  047%=      5-min Rain = 0
KVP1 150306Z 11008KT 25/13 A3017 RMK A01 T02510130  RH  047%=      5-min Rain = 0
KVP1 150307Z 11008KT 25/13 A3017 RMK A01 T02520131  RH  047%=      5-min Rain = 0
KVP1 150308Z 11008KT 25/13 A3017 RMK A01 T02540131  RH  046%=      5-min Rain = 0
KVP1 150309Z 11008KT 25/13 A3017 RMK A01 T02540131  RH  046%=      5-min Rain = 0
KVP1 150310Z 11007KT 25/13 A3017 RMK A01 T02530130  RH  047%=      5-min Rain = 0
KVP1 150311Z 11008KT 25/13 A3017 RMK A01 T02520130  RH  047%=      5-min Rain = 0
KVP1 150312Z 11007KT 25/13 A3017 RMK A01 T02520130  RH  047%=      5-min Rain = 0
KVP1 150313Z 11007KT 25/13 A3017 RMK A01 T02510130  RH  047%=      5-min Rain = 0
KVP1 150314Z 11006KT 25/13 A3017 RMK A01 T02500130  RH  047%=      5-min Rain = 0
KVP1 150315Z 11007KT 25/13 A3017 RMK A01 T02490129  RH  047%=      5-min Rain = 0
KVP1 150316Z 11007KT 25/13 A3017 RMK A01 T02480129  RH  048%=      5-min Rain = 0
KVP1 150317Z 11007KT 25/13 A3017 RMK A01 T02470130  RH  048%=      5-min Rain = 0
KVP1 150318Z 11008KT 25/13 A3017 RMK A01 T02470130  RH  048%=      5-min Rain = 0
KVP1 150319Z 11008KT 25/13 A3017 RMK A01 T02470130  RH  048%=      5-min Rain = 0
KVP1 150320Z 11007KT 25/13 A3017 RMK A01 T02470131  RH  048%=      5-min Rain = 0
KVP1 150321Z 11008KT 25/13 A3017 RMK A01 T02480130  RH  048%=      5-min Rain = 0
KVP1 150322Z 11008KT 25/13 A3017 RMK A01 T02480130  RH  048%=      5-min Rain = 0
KVP1 150323Z 11008KT 25/13 A3017 RMK A01 T02490131  RH  048%=      5-min Rain = 0
KVP1 150324Z 11007KT 25/13 A3017 RMK A01 T02490131  RH  048%=      5-min Rain = 0
KVP1 150325Z 11007KT 25/13 A3017 RMK A01 T02490132  RH  048%=      5-min Rain = 0
KVP1 150326Z 11007KT 25/13 A3018 RMK A01 T02490132  RH  048%=      5-min Rain = 0
KVP1 150327Z 11007KT 25/13 A3018 RMK A01 T02490132  RH  048%=      5-min Rain = 0
KVP1 150328Z 11007KT 25/13 A3018 RMK A01 T02490133  RH  048%=      5-min Rain = 0
KVP1 150329Z 11007KT 25/13 A3018 RMK A01 T02480133  RH  048%=      5-min Rain = 0
KVP1 150330Z 11008KT 25/13 A3018 RMK A01 T02480132  RH  049%=      5-min Rain = 0
KVP1 150331Z 11007KT 25/13 A3018 RMK A01 T02480133  RH  049%=      5-min Rain = 0
KVP1 150332Z 11008KT 25/13 A3018 RMK A01 T02480133  RH  049%=      5-min Rain = 0
KVP1 150333Z 12007KT 25/13 A3018 RMK A01 T02480133  RH  049%=      5-min Rain = 0
KVP1 150334Z 12008KT 25/13 A3018 RMK A01 T02480133  RH  049%=      5-min Rain = 0
KVP1 150335Z 12008KT 25/13 A3018 RMK A01 T02480133  RH  049%=      5-min Rain = 0
KVP1 150336Z 11008KT 25/13 A3018 RMK A01 T02480133  RH  049%=      5-min Rain = 0
KVP1 150337Z 11008KT 25/13 A3018 RMK A01 T02480133  RH  049%=      5-min Rain = 0
KVP1 150338Z 11007KT 25/13 A3018 RMK A01 T02480134  RH  049%=      5-min Rain = 0
KVP1 150339Z 12007KT 25/14 A3018 RMK A01 T02480135  RH  049%=      5-min Rain = 0
KVP1 150340Z 12007KT 25/14 A3018 RMK A01 T02480135  RH  049%=      5-min Rain = 0
KVP1 150341Z 12007KT 25/14 A3018 RMK A01 T02480135  RH  049%=      5-min Rain = 0
KVP1 150342Z 13007KT 25/14 A3018 RMK A01 T02480135  RH  050%=      5-min Rain = 0
KVP1 150343Z 13007KT 25/14 A3018 RMK A01 T02470135  RH  050%=      5-min Rain = 0
KVP1 150344Z 13008KT 25/14 A3018 RMK A01 T02460135  RH  050%=      5-min Rain = 0
KVP1 150345Z 12008KT 25/14 A3018 RMK A01 T02460136  RH  050%=      5-min Rain = 0
KVP1 150346Z 12008KT 25/14 A3018 RMK A01 T02460136  RH  050%=      5-min Rain = 0
KVP1 150347Z 12008KT 25/14 A3018 RMK A01 T02470137  RH  050%=      5-min Rain = 0
KVP1 150348Z 12008KT 25/14 A3018 RMK A01 T02480138  RH  050%=      5-min Rain = 0
KVP1 150349Z 12008KT 25/14 A3019 RMK A01 T02490138  RH  050%=      5-min Rain = 0
KVP1 150350Z 12008KT 25/14 A3019 RMK A01 T02500139  RH  050%=      5-min Rain = 0
KVP1 150351Z 12009KT 25/14 A3019 RMK A01 T02510140  RH  050%=      5-min Rain = 0
KVP1 150352Z 12009KT 25/14 A3019 RMK A01 T02520141  RH  050%=      5-min Rain = 0
KVP1 150353Z 12008KT 25/14 A3019 RMK A01 T02530141  RH  050%=      5-min Rain = 0
KVP1 150354Z 12008KT 25/14 A3019 RMK A01 T02540142  RH  050%=      5-min Rain = 0
KVP1 150355Z 11008KT 26/14 A3019 RMK A01 T02550143  RH  050%=      5-min Rain = 0
KVP1 150356Z 11008KT 26/14 A3019 RMK A01 T02550143  RH  050%=      5-min Rain = 0
KVP1 150357Z 11008KT 26/14 A3019 RMK A01 T02550143  RH  050%=      5-min Rain = 0
KVP1 150358Z 11008KT 26/14 A3019 RMK A01 T02550144  RH  050%=      5-min Rain = 0
KVP1 150359Z 11009KT 26/14 A3019 RMK A01 T02550144  RH  050%=      5-min Rain = 0
KVP1 150400Z 12008KT 26/15 A3019 RMK A01 T02550145  RH  050%=      5-min Rain = 0
KVP1 150401Z 12009KT 26/15 A3019 RMK A01 T02560146  RH  051%=      5-min Rain = 0
KVP1 150402Z 12009KT 26/15 A3019 RMK A01 T02570147  RH  051%=      5-min Rain = 0
KVP1 150403Z 12009KT 26/15 A3019 RMK A01 T02580148  RH  051%=      5-min Rain = 0
KVP1 150404Z 12008KT 26/15 A3019 RMK A01 T02580148  RH  051%=      5-min Rain = 0
KVP1 150405Z 12009KT 26/15 A3019 RMK A01 T02580149  RH  051%=      5-min Rain = 0
KVP1 150406Z 12010KT 26/15 A3019 RMK A01 T02590149  RH  051%=      5-min Rain = 0
KVP1 150407Z 12008KT 26/15 A3019 RMK A01 T02590150  RH  051%=      5-min Rain = 0
KVP1 150408Z 12009KT 26/15 A3019 RMK A01 T02590149  RH  051%=      5-min Rain = 0
KVP1 150409Z 11009KT 26/15 A3019 RMK A01 T02590150  RH  051%=      5-min Rain = 0
KVP1 150410Z 12009KT 26/15 A3019 RMK A01 T02590150  RH  051%=      5-min Rain = 0
KVP1 150411Z 11008KT 26/15 A3019 RMK A01 T02590151  RH  051%=      5-min Rain = 0
KVP1 150412Z 12008KT 26/15 A3019 RMK A01 T02590151  RH  051%=      5-min Rain = 0
KVP1 150413Z 12008KT 26/15 A3019 RMK A01 T02590151  RH  051%=      5-min Rain = 0
KVP1 150414Z 12009KT 26/15 A3019 RMK A01 T02590152  RH  052%=      5-min Rain = 0
KVP1 150415Z 12008KT 26/15 A3019 RMK A01 T02580152  RH  052%=      5-min Rain = 0
KVP1 150416Z 12008KT 26/15 A3019 RMK A01 T02580152  RH  052%=      5-min Rain = 0
KVP1 150417Z 11008KT 26/15 A3019 RMK A01 T02580152  RH  052%=      5-min Rain = 0
KVP1 150418Z 11008KT 26/15 A3019 RMK A01 T02580152  RH  052%=      5-min Rain = 0
KVP1 150419Z 12009KT 26/15 A3019 RMK A01 T02580153  RH  052%=      5-min Rain = 0
KVP1 150420Z 11008KT 26/15 A3019 RMK A01 T02580153  RH  052%=      5-min Rain = 0
KVP1 150421Z 12009KT 26/15 A3019 RMK A01 T02580153  RH  052%=      5-min Rain = 0
KVP1 150422Z 12009KT 26/15 A3019 RMK A01 T02580153  RH  052%=      5-min Rain = 0
KVP1 150423Z 11008KT 26/15 A3019 RMK A01 T02580154  RH  053%=      5-min Rain = 0
KVP1 150424Z 11007KT 26/15 A3019 RMK A01 T02580153  RH  052%=      5-min Rain = 0
KVP1 150425Z 11007KT 26/15 A3019 RMK A01 T02570154  RH  053%=      5-min Rain = 0
KVP1 150426Z 11008KT 26/15 A3019 RMK A01 T02570154  RH  053%=      5-min Rain = 0
KVP1 150427Z 11008KT 26/16 A3019 RMK A01 T02560155  RH  053%=      5-min Rain = 0
KVP1 150428Z 11007KT 26/15 A302 RMK A01 T02560154  RH  053%=      5-min Rain = 0
KVP1 150429Z 11007KT 26/15 A302 RMK A01 T02550154  RH  053%=      5-min Rain = 0
KVP1 150430Z 11007KT 26/15 A302 RMK A01 T02550154  RH  054%=      5-min Rain = 0
KVP1 150431Z 11007KT 25/15 A302 RMK A01 T02540154  RH  054%=      5-min Rain = 0
KVP1 150432Z 11007KT 25/15 A302 RMK A01 T02540154  RH  054%=      5-min Rain = 0
KVP1 150433Z 11006KT 25/15 A302 RMK A01 T02530154  RH  054%=      5-min Rain = 0
KVP1 150434Z 11007KT 25/15 A302 RMK A01 T02530154  RH  054%=      5-min Rain = 0
KVP1 150435Z 11007KT 25/15 A302 RMK A01 T02520154  RH  054%=      5-min Rain = 0
KVP1 150436Z 11007KT 25/16 A302 RMK A01 T02520155  RH  055%=      5-min Rain = 0
KVP1 150437Z 11008KT 25/15 A302 RMK A01 T02510154  RH  055%=      5-min Rain = 0
KVP1 150438Z 10008KT 25/15 A302 RMK A01 T02510154  RH  055%=      5-min Rain = 0
KVP1 150439Z 11008KT 25/15 A302 RMK A01 T02510154  RH  055%=      5-min Rain = 0
KVP1 150440Z 11008KT 25/15 A302 RMK A01 T02510154  RH  055%=      5-min Rain = 0
KVP1 150441Z 11008KT 25/15 A302 RMK A01 T02510154  RH  055%=      5-min Rain = 0
KVP1 150442Z 11008KT 25/15 A302 RMK A01 T02510154  RH  055%=      5-min Rain = 0
KVP1 150443Z 11008KT 25/15 A3019 RMK A01 T02510154  RH  055%=      5-min Rain = 0
KVP1 150444Z 11009KT 25/15 A3019 RMK A01 T02510154  RH  055%=      5-min Rain = 0
KVP1 150445Z 11009KT 25/15 A3019 RMK A01 T02510154  RH  055%=      5-min Rain = 0
KVP1 150446Z 11008KT 25/15 A3019 RMK A01 T02510154  RH  055%=      5-min Rain = 0
KVP1 150447Z 11009KT 25/15 A3019 RMK A01 T02500154  RH  055%=      5-min Rain = 0
KVP1 150448Z 11009KT 25/16 A3019 RMK A01 T02510155  RH  055%=      5-min Rain = 0
KVP1 150449Z 11008KT 25/16 A3019 RMK A01 T02520155  RH  055%=      5-min Rain = 0
KVP1 150450Z 12008KT 25/16 A3019 RMK A01 T02520155  RH  055%=      5-min Rain = 0
KVP1 150451Z 11009KT 25/16 A3019 RMK A01 T02520155  RH  055%=      5-min Rain = 0
KVP1 150452Z 11009KT 25/16 A3019 RMK A01 T02520156  RH  055%=      5-min Rain = 0
KVP1 150453Z 11009KT 25/16 A3019 RMK A01 T02520155  RH  055%=      5-min Rain = 0
KVP1 150454Z 11009KT 25/16 A3019 RMK A01 T02520155  RH  055%=      5-min Rain = 0
KVP1 150455Z 11008KT 25/16 A3019 RMK A01 T02520155  RH  055%=      5-min Rain = 0
KVP1 150456Z 11007KT 25/16 A3019 RMK A01 T02520155  RH  055%=      5-min Rain = 0
KVP1 150457Z 11008KT 25/16 A3019 RMK A01 T02520155  RH  055%=      5-min Rain = 0
KVP1 150458Z 12009KT 25/16 A3019 RMK A01 T02520156  RH  055%=      5-min Rain = 0
KVP1 150459Z 12009KT 25/16 A3019 RMK A01 T02530156  RH  055%=      5-min Rain = 0

Page generated in 0.1218 seconds.